<?xml version="1.0" encoding="UTF-8" standalone="no" ?><gpx xmlns="http://www.topografix.com/GPX/1/1" xmlns:gpxx="http://www.garmin.com/xmlschemas/GpxExtensions/v3" xmlns:gpxtpx="http://www.garmin.com/xmlschemas/TrackPointExtension/v1" creator="Foretrex 301" version="1.1" xmlns:xsi="http://www.w3.org/2001/XMLSchema-instance" xsi:schemaLocation="http://www.topografix.com/GPX/1/1 http://www.topografix.com/GPX/1/1/gpx.xsd http://www.garmin.com/xmlschemas/GpxExtensions/v3 http://www.garmin.com/xmlschemas/GpxExtensions/v3/GpxExtensionsv3.xsd"><metadata><link href="http://www.garmin.com"><text>Garmin International</text></link><time>2011-08-24T17:58:27Z</time></metadata><trk><name>ACTIVE LOG: 24 AUG 2011 08:59</name><trkseg><trkpt lat="51.935388" lon="-1.656183"><ele>123.67</ele><time>2011-08-24T08:59:55Z</time></trkpt><trkpt lat="51.935379" lon="-1.656191"><ele>123.19</ele><time>2011-08-24T09:00:08Z</time></trkpt><trkpt lat="51.935424" lon="-1.656191"><ele>122.71</ele><time>2011-08-24T09:00:17Z</time></trkpt><trkpt lat="51.935436" lon="-1.656165"><ele>120.30</ele><time>2011-08-24T09:00:27Z</time></trkpt><trkpt lat="51.935447" lon="-1.656139"><ele>119.34</ele><time>2011-08-24T09:00:35Z</time></trkpt><trkpt lat="51.935469" lon="-1.656102"><ele>118.86</ele><time>2011-08-24T09:00:41Z</time></trkpt><trkpt lat="51.935484" lon="-1.656008"><ele>117.90</ele><time>2011-08-24T09:00:49Z</time></trkpt><trkpt lat="51.935485" lon="-1.655960"><ele>117.42</ele><time>2011-08-24T09:00:59Z</time></trkpt><trkpt lat="51.935519" lon="-1.655926"><ele>117.42</ele><time>2011-08-24T09:01:13Z</time></trkpt><trkpt lat="51.935577" lon="-1.655823"><ele>118.38</ele><time>2011-08-24T09:01:22Z</time></trkpt><trkpt lat="51.935653" lon="-1.655673"><ele>118.38</ele><time>2011-08-24T09:01:34Z</time></trkpt><trkpt lat="51.935692" lon="-1.655580"><ele>118.86</ele><time>2011-08-24T09:01:41Z</time></trkpt><trkpt lat="51.935736" lon="-1.655455"><ele>119.82</ele><time>2011-08-24T09:01:49Z</time></trkpt><trkpt lat="51.935789" lon="-1.655352"><ele>120.78</ele><time>2011-08-24T09:01:57Z</time></trkpt><trkpt lat="51.935848" lon="-1.655242"><ele>122.22</ele><time>2011-08-24T09:02:05Z</time></trkpt><trkpt lat="51.935911" lon="-1.655121"><ele>123.19</ele><time>2011-08-24T09:02:14Z</time></trkpt><trkpt lat="51.935954" lon="-1.655002"><ele>123.67</ele><time>2011-08-24T09:02:22Z</time></trkpt><trkpt lat="51.936029" lon="-1.654874"><ele>125.11</ele><time>2011-08-24T09:02:32Z</time></trkpt><trkpt lat="51.936036" lon="-1.654861"><ele>125.11</ele><time>2011-08-24T09:02:33Z</time></trkpt><trkpt lat="51.936089" lon="-1.654740"><ele>125.11</ele><time>2011-08-24T09:02:42Z</time></trkpt><trkpt lat="51.936128" lon="-1.654658"><ele>125.59</ele><time>2011-08-24T09:02:48Z</time></trkpt><trkpt lat="51.936178" lon="-1.654550"><ele>125.59</ele><time>2011-08-24T09:02:56Z</time></trkpt><trkpt lat="51.936229" lon="-1.654456"><ele>125.59</ele><time>2011-08-24T09:03:04Z</time></trkpt><trkpt lat="51.936299" lon="-1.654307"><ele>125.11</ele><time>2011-08-24T09:03:14Z</time></trkpt><trkpt lat="51.936352" lon="-1.654224"><ele>124.63</ele><time>2011-08-24T09:03:20Z</time></trkpt><trkpt lat="51.936420" lon="-1.654104"><ele>125.11</ele><time>2011-08-24T09:03:30Z</time></trkpt><trkpt lat="51.936471" lon="-1.653994"><ele>124.15</ele><time>2011-08-24T09:03:39Z</time></trkpt><trkpt lat="51.936501" lon="-1.653911"><ele>123.67</ele><time>2011-08-24T09:03:47Z</time></trkpt><trkpt lat="51.936549" lon="-1.653807"><ele>123.67</ele><time>2011-08-24T09:03:55Z</time></trkpt><trkpt lat="51.936581" lon="-1.653746"><ele>123.67</ele><time>2011-08-24T09:04:01Z</time></trkpt><trkpt lat="51.936625" lon="-1.653710"><ele>124.63</ele><time>2011-08-24T09:04:07Z</time></trkpt><trkpt lat="51.936686" lon="-1.653667"><ele>124.63</ele><time>2011-08-24T09:04:14Z</time></trkpt><trkpt lat="51.936753" lon="-1.653549"><ele>124.15</ele><time>2011-08-24T09:04:23Z</time></trkpt><trkpt lat="51.936804" lon="-1.653456"><ele>124.63</ele><time>2011-08-24T09:04:30Z</time></trkpt><trkpt lat="51.936823" lon="-1.653432"><ele>123.19</ele><time>2011-08-24T09:04:40Z</time></trkpt><trkpt lat="51.936821" lon="-1.653432"><ele>123.19</ele><time>2011-08-24T09:05:02Z</time></trkpt><trkpt lat="51.936859" lon="-1.653379"><ele>123.67</ele><time>2011-08-24T09:05:09Z</time></trkpt><trkpt lat="51.936915" lon="-1.653267"><ele>124.15</ele><time>2011-08-24T09:05:16Z</time></trkpt><trkpt lat="51.937014" lon="-1.653086"><ele>125.59</ele><time>2011-08-24T09:05:28Z</time></trkpt><trkpt lat="51.937056" lon="-1.652996"><ele>124.63</ele><time>2011-08-24T09:05:34Z</time></trkpt><trkpt lat="51.937096" lon="-1.652918"><ele>125.11</ele><time>2011-08-24T09:05:40Z</time></trkpt><trkpt lat="51.937160" lon="-1.652792"><ele>124.63</ele><time>2011-08-24T09:05:48Z</time></trkpt><trkpt lat="51.937236" lon="-1.652638"><ele>125.59</ele><time>2011-08-24T09:05:59Z</time></trkpt><trkpt lat="51.937265" lon="-1.652591"><ele>127.03</ele><time>2011-08-24T09:06:03Z</time></trkpt><trkpt lat="51.937416" lon="-1.652543"><ele>127.51</ele><time>2011-08-24T09:06:16Z</time></trkpt><trkpt lat="51.937536" lon="-1.652456"><ele>127.99</ele><time>2011-08-24T09:06:27Z</time></trkpt><trkpt lat="51.937571" lon="-1.652392"><ele>128.95</ele><time>2011-08-24T09:06:32Z</time></trkpt><trkpt lat="51.937638" lon="-1.652175"><ele>128.47</ele><time>2011-08-24T09:06:44Z</time></trkpt><trkpt lat="51.937685" lon="-1.651982"><ele>128.47</ele><time>2011-08-24T09:06:55Z</time></trkpt><trkpt lat="51.937719" lon="-1.651838"><ele>127.99</ele><time>2011-08-24T09:07:04Z</time></trkpt><trkpt lat="51.937724" lon="-1.651826"><ele>127.51</ele><time>2011-08-24T09:07:05Z</time></trkpt><trkpt lat="51.937778" lon="-1.651669"><ele>127.51</ele><time>2011-08-24T09:07:15Z</time></trkpt><trkpt lat="51.937850" lon="-1.651548"><ele>127.99</ele><time>2011-08-24T09:07:25Z</time></trkpt><trkpt lat="51.937925" lon="-1.651480"><ele>127.99</ele><time>2011-08-24T09:07:34Z</time></trkpt><trkpt lat="51.938020" lon="-1.651429"><ele>127.99</ele><time>2011-08-24T09:07:44Z</time></trkpt><trkpt lat="51.938113" lon="-1.651389"><ele>128.47</ele><time>2011-08-24T09:07:54Z</time></trkpt><trkpt lat="51.938211" lon="-1.651364"><ele>128.95</ele><time>2011-08-24T09:08:04Z</time></trkpt><trkpt lat="51.938301" lon="-1.651314"><ele>128.95</ele><time>2011-08-24T09:08:14Z</time></trkpt><trkpt lat="51.938373" lon="-1.651253"><ele>128.95</ele><time>2011-08-24T09:08:22Z</time></trkpt><trkpt lat="51.938466" lon="-1.651185"><ele>128.95</ele><time>2011-08-24T09:08:31Z</time></trkpt><trkpt lat="51.938549" lon="-1.651111"><ele>129.92</ele><time>2011-08-24T09:08:40Z</time></trkpt><trkpt lat="51.938637" lon="-1.651075"><ele>129.92</ele><time>2011-08-24T09:08:49Z</time></trkpt><trkpt lat="51.938697" lon="-1.651083"><ele>129.92</ele><time>2011-08-24T09:08:56Z</time></trkpt><trkpt lat="51.938781" lon="-1.651127"><ele>129.43</ele><time>2011-08-24T09:09:05Z</time></trkpt><trkpt lat="51.938799" lon="-1.651131"><ele>129.43</ele><time>2011-08-24T09:09:12Z</time></trkpt><trkpt lat="51.938829" lon="-1.651142"><ele>130.40</ele><time>2011-08-24T09:09:23Z</time></trkpt><trkpt lat="51.938841" lon="-1.651159"><ele>131.36</ele><time>2011-08-24T09:09:33Z</time></trkpt><trkpt lat="51.938880" lon="-1.651176"><ele>131.36</ele><time>2011-08-24T09:09:39Z</time></trkpt><trkpt lat="51.938982" lon="-1.651200"><ele>130.88</ele><time>2011-08-24T09:09:49Z</time></trkpt><trkpt lat="51.939027" lon="-1.651204"><ele>131.36</ele><time>2011-08-24T09:09:53Z</time></trkpt><trkpt lat="51.939068" lon="-1.651213"><ele>130.88</ele><time>2011-08-24T09:09:57Z</time></trkpt><trkpt lat="51.939142" lon="-1.651200"><ele>130.88</ele><time>2011-08-24T09:10:05Z</time></trkpt><trkpt lat="51.939173" lon="-1.651196"><ele>131.36</ele><time>2011-08-24T09:10:15Z</time></trkpt><trkpt lat="51.939188" lon="-1.651182"><ele>130.88</ele><time>2011-08-24T09:10:22Z</time></trkpt><trkpt lat="51.939222" lon="-1.651201"><ele>130.40</ele><time>2011-08-24T09:10:30Z</time></trkpt><trkpt lat="51.939292" lon="-1.651192"><ele>131.36</ele><time>2011-08-24T09:10:38Z</time></trkpt><trkpt lat="51.939314" lon="-1.651185"><ele>132.32</ele><time>2011-08-24T09:10:42Z</time></trkpt><trkpt lat="51.939407" lon="-1.651113"><ele>133.76</ele><time>2011-08-24T09:10:52Z</time></trkpt><trkpt lat="51.939477" lon="-1.650934"><ele>131.84</ele><time>2011-08-24T09:11:02Z</time></trkpt><trkpt lat="51.939522" lon="-1.650818"><ele>129.43</ele><time>2011-08-24T09:11:09Z</time></trkpt><trkpt lat="51.939567" lon="-1.650668"><ele>127.99</ele><time>2011-08-24T09:11:18Z</time></trkpt><trkpt lat="51.939618" lon="-1.650531"><ele>127.51</ele><time>2011-08-24T09:11:27Z</time></trkpt><trkpt lat="51.939655" lon="-1.650428"><ele>129.43</ele><time>2011-08-24T09:11:34Z</time></trkpt><trkpt lat="51.939706" lon="-1.650289"><ele>129.43</ele><time>2011-08-24T09:11:43Z</time></trkpt><trkpt lat="51.939723" lon="-1.650236"><ele>129.43</ele><time>2011-08-24T09:11:50Z</time></trkpt><trkpt lat="51.939732" lon="-1.650200"><ele>129.92</ele><time>2011-08-24T09:12:05Z</time></trkpt><trkpt lat="51.939771" lon="-1.650089"><ele>130.88</ele><time>2011-08-24T09:12:11Z</time></trkpt><trkpt lat="51.939841" lon="-1.649930"><ele>131.36</ele><time>2011-08-24T09:12:21Z</time></trkpt><trkpt lat="51.939865" lon="-1.649889"><ele>131.36</ele><time>2011-08-24T09:12:24Z</time></trkpt><trkpt lat="51.939924" lon="-1.649785"><ele>133.76</ele><time>2011-08-24T09:12:32Z</time></trkpt><trkpt lat="51.939955" lon="-1.649627"><ele>137.13</ele><time>2011-08-24T09:12:42Z</time></trkpt><trkpt lat="51.939996" lon="-1.649461"><ele>137.61</ele><time>2011-08-24T09:12:51Z</time></trkpt><trkpt lat="51.940026" lon="-1.649331"><ele>139.05</ele><time>2011-08-24T09:12:58Z</time></trkpt><trkpt lat="51.940081" lon="-1.649257"><ele>140.49</ele><time>2011-08-24T09:13:10Z</time></trkpt><trkpt lat="51.940087" lon="-1.649220"><ele>140.97</ele><time>2011-08-24T09:13:18Z</time></trkpt><trkpt lat="51.940104" lon="-1.649163"><ele>140.97</ele><time>2011-08-24T09:13:25Z</time></trkpt><trkpt lat="51.940120" lon="-1.649061"><ele>141.45</ele><time>2011-08-24T09:13:32Z</time></trkpt><trkpt lat="51.940144" lon="-1.648914"><ele>142.41</ele><time>2011-08-24T09:13:41Z</time></trkpt><trkpt lat="51.940154" lon="-1.648852"><ele>142.41</ele><time>2011-08-24T09:13:45Z</time></trkpt><trkpt lat="51.940165" lon="-1.648786"><ele>142.41</ele><time>2011-08-24T09:13:49Z</time></trkpt><trkpt lat="51.940189" lon="-1.648718"><ele>142.89</ele><time>2011-08-24T09:13:54Z</time></trkpt><trkpt lat="51.940231" lon="-1.648532"><ele>141.45</ele><time>2011-08-24T09:14:06Z</time></trkpt><trkpt lat="51.940267" lon="-1.648419"><ele>140.97</ele><time>2011-08-24T09:14:14Z</time></trkpt><trkpt lat="51.940299" lon="-1.648305"><ele>140.97</ele><time>2011-08-24T09:14:21Z</time></trkpt><trkpt lat="51.940328" lon="-1.648245"><ele>141.45</ele><time>2011-08-24T09:14:28Z</time></trkpt><trkpt lat="51.940323" lon="-1.648261"><ele>141.93</ele><time>2011-08-24T09:14:38Z</time></trkpt><trkpt lat="51.940310" lon="-1.648277"><ele>140.97</ele><time>2011-08-24T09:14:51Z</time></trkpt><trkpt lat="51.940323" lon="-1.648276"><ele>140.01</ele><time>2011-08-24T09:15:01Z</time></trkpt><trkpt lat="51.940363" lon="-1.648080"><ele>137.61</ele><time>2011-08-24T09:15:13Z</time></trkpt><trkpt lat="51.940390" lon="-1.647930"><ele>137.13</ele><time>2011-08-24T09:15:21Z</time></trkpt><trkpt lat="51.940407" lon="-1.647793"><ele>137.13</ele><time>2011-08-24T09:15:28Z</time></trkpt><trkpt lat="51.940424" lon="-1.647754"><ele>137.61</ele><time>2011-08-24T09:15:30Z</time></trkpt><trkpt lat="51.940461" lon="-1.647698"><ele>138.57</ele><time>2011-08-24T09:15:34Z</time></trkpt><trkpt lat="51.940497" lon="-1.647633"><ele>139.53</ele><time>2011-08-24T09:15:38Z</time></trkpt><trkpt lat="51.940576" lon="-1.647578"><ele>141.45</ele><time>2011-08-24T09:15:45Z</time></trkpt><trkpt lat="51.940629" lon="-1.647465"><ele>143.37</ele><time>2011-08-24T09:15:56Z</time></trkpt><trkpt lat="51.940735" lon="-1.647399"><ele>143.37</ele><time>2011-08-24T09:16:06Z</time></trkpt><trkpt lat="51.940845" lon="-1.647326"><ele>143.85</ele><time>2011-08-24T09:16:16Z</time></trkpt><trkpt lat="51.940988" lon="-1.647316"><ele>142.89</ele><time>2011-08-24T09:16:28Z</time></trkpt><trkpt lat="51.941138" lon="-1.647315"><ele>142.41</ele><time>2011-08-24T09:16:40Z</time></trkpt><trkpt lat="51.941244" lon="-1.647323"><ele>141.93</ele><time>2011-08-24T09:16:49Z</time></trkpt><trkpt lat="51.941333" lon="-1.647410"><ele>141.45</ele><time>2011-08-24T09:16:58Z</time></trkpt><trkpt lat="51.941401" lon="-1.647501"><ele>140.49</ele><time>2011-08-24T09:17:06Z</time></trkpt><trkpt lat="51.941462" lon="-1.647637"><ele>140.01</ele><time>2011-08-24T09:17:15Z</time></trkpt><trkpt lat="51.941491" lon="-1.647693"><ele>140.01</ele><time>2011-08-24T09:17:19Z</time></trkpt><trkpt lat="51.941549" lon="-1.647875"><ele>140.49</ele><time>2011-08-24T09:17:30Z</time></trkpt><trkpt lat="51.941603" lon="-1.648042"><ele>139.05</ele><time>2011-08-24T09:17:40Z</time></trkpt><trkpt lat="51.941654" lon="-1.648107"><ele>142.41</ele><time>2011-08-24T09:17:49Z</time></trkpt><trkpt lat="51.941664" lon="-1.648160"><ele>143.37</ele><time>2011-08-24T09:17:59Z</time></trkpt><trkpt lat="51.941718" lon="-1.648274"><ele>141.93</ele><time>2011-08-24T09:18:08Z</time></trkpt><trkpt lat="51.941788" lon="-1.648370"><ele>140.97</ele><time>2011-08-24T09:18:17Z</time></trkpt><trkpt lat="51.941855" lon="-1.648502"><ele>140.01</ele><time>2011-08-24T09:18:26Z</time></trkpt><trkpt lat="51.941926" lon="-1.648627"><ele>138.09</ele><time>2011-08-24T09:18:36Z</time></trkpt><trkpt lat="51.941984" lon="-1.648778"><ele>137.13</ele><time>2011-08-24T09:18:46Z</time></trkpt><trkpt lat="51.942024" lon="-1.648924"><ele>136.16</ele><time>2011-08-24T09:18:55Z</time></trkpt><trkpt lat="51.942050" lon="-1.649038"><ele>135.68</ele><time>2011-08-24T09:19:03Z</time></trkpt><trkpt lat="51.942064" lon="-1.649124"><ele>134.72</ele><time>2011-08-24T09:19:10Z</time></trkpt><trkpt lat="51.942064" lon="-1.649151"><ele>134.24</ele><time>2011-08-24T09:19:20Z</time></trkpt><trkpt lat="51.942073" lon="-1.649119"><ele>131.84</ele><time>2011-08-24T09:20:41Z</time></trkpt><trkpt lat="51.942105" lon="-1.649174"><ele>129.92</ele><time>2011-08-24T09:21:01Z</time></trkpt><trkpt lat="51.942112" lon="-1.649188"><ele>129.92</ele><time>2011-08-24T09:21:02Z</time></trkpt><trkpt lat="51.942180" lon="-1.649332"><ele>129.43</ele><time>2011-08-24T09:21:12Z</time></trkpt><trkpt lat="51.942247" lon="-1.649407"><ele>129.43</ele><time>2011-08-24T09:21:21Z</time></trkpt><trkpt lat="51.942310" lon="-1.649452"><ele>128.95</ele><time>2011-08-24T09:21:28Z</time></trkpt><trkpt lat="51.942397" lon="-1.649515"><ele>129.92</ele><time>2011-08-24T09:21:36Z</time></trkpt><trkpt lat="51.942441" lon="-1.649552"><ele>130.88</ele><time>2011-08-24T09:21:41Z</time></trkpt><trkpt lat="51.942505" lon="-1.649554"><ele>131.36</ele><time>2011-08-24T09:21:48Z</time></trkpt><trkpt lat="51.942520" lon="-1.649497"><ele>131.36</ele><time>2011-08-24T09:21:54Z</time></trkpt><trkpt lat="51.942516" lon="-1.649452"><ele>130.88</ele><time>2011-08-24T09:22:02Z</time></trkpt><trkpt lat="51.942513" lon="-1.649454"><ele>130.88</ele><time>2011-08-24T09:22:20Z</time></trkpt><trkpt lat="51.942522" lon="-1.649503"><ele>128.95</ele><time>2011-08-24T09:22:34Z</time></trkpt><trkpt lat="51.942512" lon="-1.649461"><ele>126.55</ele><time>2011-08-24T09:23:54Z</time></trkpt><trkpt lat="51.942512" lon="-1.649462"><ele>126.55</ele><time>2011-08-24T09:23:58Z</time></trkpt><trkpt lat="51.942543" lon="-1.649485"><ele>126.07</ele><time>2011-08-24T09:24:06Z</time></trkpt><trkpt lat="51.942537" lon="-1.649478"><ele>126.07</ele><time>2011-08-24T09:24:12Z</time></trkpt><trkpt lat="51.942524" lon="-1.649459"><ele>126.07</ele><time>2011-08-24T09:24:19Z</time></trkpt><trkpt lat="51.942526" lon="-1.649459"><ele>126.07</ele><time>2011-08-24T09:24:22Z</time></trkpt><trkpt lat="51.942547" lon="-1.649462"><ele>126.55</ele><time>2011-08-24T09:24:27Z</time></trkpt><trkpt lat="51.942540" lon="-1.649443"><ele>127.51</ele><time>2011-08-24T09:24:42Z</time></trkpt><trkpt lat="51.942550" lon="-1.649428"><ele>127.51</ele><time>2011-08-24T09:24:52Z</time></trkpt><trkpt lat="51.942565" lon="-1.649393"><ele>122.71</ele><time>2011-08-24T09:25:44Z</time></trkpt><trkpt lat="51.942584" lon="-1.649390"><ele>120.30</ele><time>2011-08-24T09:25:51Z</time></trkpt><trkpt lat="51.942607" lon="-1.649296"><ele>120.30</ele><time>2011-08-24T09:26:00Z</time></trkpt><trkpt lat="51.942604" lon="-1.649253"><ele>120.30</ele><time>2011-08-24T09:26:02Z</time></trkpt><trkpt lat="51.942582" lon="-1.649033"><ele>122.22</ele><time>2011-08-24T09:26:12Z</time></trkpt><trkpt lat="51.942621" lon="-1.648840"><ele>125.59</ele><time>2011-08-24T09:26:25Z</time></trkpt><trkpt lat="51.942623" lon="-1.648697"><ele>126.55</ele><time>2011-08-24T09:26:35Z</time></trkpt><trkpt lat="51.942639" lon="-1.648615"><ele>126.55</ele><time>2011-08-24T09:26:41Z</time></trkpt><trkpt lat="51.942647" lon="-1.648485"><ele>127.51</ele><time>2011-08-24T09:26:48Z</time></trkpt><trkpt lat="51.942648" lon="-1.648434"><ele>127.99</ele><time>2011-08-24T09:26:51Z</time></trkpt><trkpt lat="51.942644" lon="-1.648342"><ele>128.95</ele><time>2011-08-24T09:26:58Z</time></trkpt><trkpt lat="51.942638" lon="-1.648315"><ele>128.95</ele><time>2011-08-24T09:27:00Z</time></trkpt><trkpt lat="51.942645" lon="-1.648199"><ele>129.92</ele><time>2011-08-24T09:27:08Z</time></trkpt><trkpt lat="51.942646" lon="-1.648075"><ele>130.40</ele><time>2011-08-24T09:27:16Z</time></trkpt><trkpt lat="51.942673" lon="-1.648003"><ele>132.80</ele><time>2011-08-24T09:27:22Z</time></trkpt><trkpt lat="51.942692" lon="-1.647877"><ele>133.76</ele><time>2011-08-24T09:27:30Z</time></trkpt><trkpt lat="51.942722" lon="-1.647762"><ele>135.68</ele><time>2011-08-24T09:27:38Z</time></trkpt><trkpt lat="51.942744" lon="-1.647663"><ele>136.16</ele><time>2011-08-24T09:27:46Z</time></trkpt><trkpt lat="51.942746" lon="-1.647631"><ele>135.68</ele><time>2011-08-24T09:27:48Z</time></trkpt><trkpt lat="51.942757" lon="-1.647500"><ele>133.76</ele><time>2011-08-24T09:27:56Z</time></trkpt><trkpt lat="51.942775" lon="-1.647410"><ele>134.72</ele><time>2011-08-24T09:28:03Z</time></trkpt><trkpt lat="51.942772" lon="-1.647348"><ele>135.68</ele><time>2011-08-24T09:28:10Z</time></trkpt><trkpt lat="51.942784" lon="-1.647326"><ele>135.68</ele><time>2011-08-24T09:28:31Z</time></trkpt><trkpt lat="51.942810" lon="-1.647273"><ele>136.64</ele><time>2011-08-24T09:28:50Z</time></trkpt><trkpt lat="51.942826" lon="-1.647073"><ele>139.53</ele><time>2011-08-24T09:29:00Z</time></trkpt><trkpt lat="51.942840" lon="-1.646907"><ele>140.49</ele><time>2011-08-24T09:29:09Z</time></trkpt><trkpt lat="51.942853" lon="-1.646694"><ele>141.93</ele><time>2011-08-24T09:29:20Z</time></trkpt><trkpt lat="51.942863" lon="-1.646506"><ele>142.41</ele><time>2011-08-24T09:29:30Z</time></trkpt><trkpt lat="51.942870" lon="-1.646324"><ele>142.89</ele><time>2011-08-24T09:29:40Z</time></trkpt><trkpt lat="51.942878" lon="-1.646085"><ele>144.34</ele><time>2011-08-24T09:29:52Z</time></trkpt><trkpt lat="51.942879" lon="-1.645893"><ele>144.82</ele><time>2011-08-24T09:30:02Z</time></trkpt><trkpt lat="51.942882" lon="-1.645673"><ele>144.82</ele><time>2011-08-24T09:30:14Z</time></trkpt><trkpt lat="51.942875" lon="-1.645470"><ele>145.30</ele><time>2011-08-24T09:30:25Z</time></trkpt><trkpt lat="51.942881" lon="-1.645261"><ele>146.26</ele><time>2011-08-24T09:30:36Z</time></trkpt><trkpt lat="51.942890" lon="-1.645033"><ele>147.22</ele><time>2011-08-24T09:30:48Z</time></trkpt><trkpt lat="51.942889" lon="-1.644823"><ele>147.22</ele><time>2011-08-24T09:30:59Z</time></trkpt><trkpt lat="51.942893" lon="-1.644622"><ele>147.70</ele><time>2011-08-24T09:31:10Z</time></trkpt><trkpt lat="51.942895" lon="-1.644425"><ele>148.18</ele><time>2011-08-24T09:31:21Z</time></trkpt><trkpt lat="51.942898" lon="-1.644292"><ele>148.66</ele><time>2011-08-24T09:31:29Z</time></trkpt><trkpt lat="51.942912" lon="-1.644130"><ele>149.62</ele><time>2011-08-24T09:31:39Z</time></trkpt><trkpt lat="51.942923" lon="-1.643997"><ele>149.62</ele><time>2011-08-24T09:31:47Z</time></trkpt><trkpt lat="51.942927" lon="-1.643876"><ele>149.62</ele><time>2011-08-24T09:31:55Z</time></trkpt><trkpt lat="51.942928" lon="-1.643787"><ele>149.62</ele><time>2011-08-24T09:32:02Z</time></trkpt><trkpt lat="51.942938" lon="-1.643665"><ele>150.10</ele><time>2011-08-24T09:32:11Z</time></trkpt><trkpt lat="51.942951" lon="-1.643549"><ele>150.58</ele><time>2011-08-24T09:32:20Z</time></trkpt><trkpt lat="51.942968" lon="-1.643450"><ele>151.06</ele><time>2011-08-24T09:32:28Z</time></trkpt><trkpt lat="51.942982" lon="-1.643367"><ele>151.54</ele><time>2011-08-24T09:32:35Z</time></trkpt><trkpt lat="51.942983" lon="-1.643277"><ele>153.47</ele><time>2011-08-24T09:32:43Z</time></trkpt><trkpt lat="51.943000" lon="-1.643184"><ele>154.91</ele><time>2011-08-24T09:32:51Z</time></trkpt><trkpt lat="51.943003" lon="-1.643059"><ele>154.91</ele><time>2011-08-24T09:33:01Z</time></trkpt><trkpt lat="51.942997" lon="-1.642955"><ele>154.91</ele><time>2011-08-24T09:33:09Z</time></trkpt><trkpt lat="51.943007" lon="-1.642862"><ele>155.39</ele><time>2011-08-24T09:33:16Z</time></trkpt><trkpt lat="51.943013" lon="-1.642738"><ele>155.87</ele><time>2011-08-24T09:33:26Z</time></trkpt><trkpt lat="51.943022" lon="-1.642651"><ele>157.79</ele><time>2011-08-24T09:33:34Z</time></trkpt><trkpt lat="51.943012" lon="-1.642574"><ele>159.24</ele><time>2011-08-24T09:33:42Z</time></trkpt><trkpt lat="51.943010" lon="-1.642513"><ele>160.68</ele><time>2011-08-24T09:33:48Z</time></trkpt><trkpt lat="51.943007" lon="-1.642451"><ele>162.12</ele><time>2011-08-24T09:33:54Z</time></trkpt><trkpt lat="51.942998" lon="-1.642349"><ele>161.64</ele><time>2011-08-24T09:34:03Z</time></trkpt><trkpt lat="51.942967" lon="-1.642266"><ele>163.08</ele><time>2011-08-24T09:34:12Z</time></trkpt><trkpt lat="51.942964" lon="-1.642122"><ele>164.52</ele><time>2011-08-24T09:34:22Z</time></trkpt><trkpt lat="51.942949" lon="-1.642026"><ele>166.93</ele><time>2011-08-24T09:34:31Z</time></trkpt><trkpt lat="51.942903" lon="-1.641908"><ele>170.77</ele><time>2011-08-24T09:34:47Z</time></trkpt><trkpt lat="51.942882" lon="-1.641813"><ele>171.73</ele><time>2011-08-24T09:34:55Z</time></trkpt><trkpt lat="51.942869" lon="-1.641703"><ele>173.66</ele><time>2011-08-24T09:35:05Z</time></trkpt><trkpt lat="51.942833" lon="-1.641589"><ele>175.10</ele><time>2011-08-24T09:35:17Z</time></trkpt><trkpt lat="51.942820" lon="-1.641493"><ele>176.54</ele><time>2011-08-24T09:35:30Z</time></trkpt><trkpt lat="51.942786" lon="-1.641411"><ele>177.50</ele><time>2011-08-24T09:35:41Z</time></trkpt><trkpt lat="51.942763" lon="-1.641349"><ele>180.87</ele><time>2011-08-24T09:35:49Z</time></trkpt><trkpt lat="51.942717" lon="-1.641214"><ele>183.75</ele><time>2011-08-24T09:36:00Z</time></trkpt><trkpt lat="51.942638" lon="-1.641150"><ele>181.83</ele><time>2011-08-24T09:36:08Z</time></trkpt><trkpt lat="51.942551" lon="-1.641114"><ele>178.46</ele><time>2011-08-24T09:36:16Z</time></trkpt><trkpt lat="51.942448" lon="-1.641047"><ele>174.62</ele><time>2011-08-24T09:36:26Z</time></trkpt><trkpt lat="51.942389" lon="-1.640997"><ele>171.73</ele><time>2011-08-24T09:36:34Z</time></trkpt><trkpt lat="51.942339" lon="-1.640986"><ele>170.77</ele><time>2011-08-24T09:36:41Z</time></trkpt><trkpt lat="51.942256" lon="-1.640930"><ele>168.85</ele><time>2011-08-24T09:36:52Z</time></trkpt><trkpt lat="51.942180" lon="-1.640876"><ele>169.81</ele><time>2011-08-24T09:37:02Z</time></trkpt><trkpt lat="51.942134" lon="-1.640852"><ele>171.25</ele><time>2011-08-24T09:37:11Z</time></trkpt><trkpt lat="51.942059" lon="-1.640754"><ele>172.21</ele><time>2011-08-24T09:37:20Z</time></trkpt><trkpt lat="51.942024" lon="-1.640743"><ele>171.73</ele><time>2011-08-24T09:37:24Z</time></trkpt><trkpt lat="51.941939" lon="-1.640685"><ele>170.29</ele><time>2011-08-24T09:37:33Z</time></trkpt><trkpt lat="51.941835" lon="-1.640621"><ele>167.89</ele><time>2011-08-24T09:37:45Z</time></trkpt><trkpt lat="51.941784" lon="-1.640580"><ele>171.25</ele><time>2011-08-24T09:37:57Z</time></trkpt><trkpt lat="51.941759" lon="-1.640500"><ele>174.62</ele><time>2011-08-24T09:38:06Z</time></trkpt><trkpt lat="51.941773" lon="-1.640449"><ele>175.58</ele><time>2011-08-24T09:38:14Z</time></trkpt><trkpt lat="51.941809" lon="-1.640441"><ele>176.54</ele><time>2011-08-24T09:38:31Z</time></trkpt><trkpt lat="51.941843" lon="-1.640379"><ele>178.46</ele><time>2011-08-24T09:38:50Z</time></trkpt><trkpt lat="51.941881" lon="-1.640243"><ele>182.79</ele><time>2011-08-24T09:39:00Z</time></trkpt><trkpt lat="51.941907" lon="-1.640141"><ele>185.19</ele><time>2011-08-24T09:39:09Z</time></trkpt><trkpt lat="51.941912" lon="-1.640128"><ele>185.67</ele><time>2011-08-24T09:39:10Z</time></trkpt><trkpt lat="51.941967" lon="-1.640007"><ele>188.08</ele><time>2011-08-24T09:39:18Z</time></trkpt><trkpt lat="51.942020" lon="-1.639829"><ele>189.52</ele><time>2011-08-24T09:39:30Z</time></trkpt><trkpt lat="51.942060" lon="-1.639710"><ele>190.48</ele><time>2011-08-24T09:39:40Z</time></trkpt><trkpt lat="51.942094" lon="-1.639629"><ele>190.48</ele><time>2011-08-24T09:39:47Z</time></trkpt><trkpt lat="51.942119" lon="-1.639554"><ele>189.52</ele><time>2011-08-24T09:39:54Z</time></trkpt><trkpt lat="51.942151" lon="-1.639429"><ele>189.52</ele><time>2011-08-24T09:40:04Z</time></trkpt><trkpt lat="51.942187" lon="-1.639373"><ele>190.48</ele><time>2011-08-24T09:40:13Z</time></trkpt><trkpt lat="51.942251" lon="-1.639204"><ele>191.44</ele><time>2011-08-24T09:40:23Z</time></trkpt><trkpt lat="51.942280" lon="-1.639023"><ele>192.40</ele><time>2011-08-24T09:40:34Z</time></trkpt><trkpt lat="51.942328" lon="-1.638936"><ele>194.32</ele><time>2011-08-24T09:40:45Z</time></trkpt><trkpt lat="51.942360" lon="-1.638800"><ele>195.28</ele><time>2011-08-24T09:40:57Z</time></trkpt><trkpt lat="51.942385" lon="-1.638722"><ele>197.21</ele><time>2011-08-24T09:41:06Z</time></trkpt><trkpt lat="51.942430" lon="-1.638570"><ele>199.13</ele><time>2011-08-24T09:41:17Z</time></trkpt><trkpt lat="51.942480" lon="-1.638407"><ele>200.57</ele><time>2011-08-24T09:41:30Z</time></trkpt><trkpt lat="51.942532" lon="-1.638298"><ele>200.09</ele><time>2011-08-24T09:41:38Z</time></trkpt><trkpt lat="51.942581" lon="-1.638150"><ele>198.65</ele><time>2011-08-24T09:41:48Z</time></trkpt><trkpt lat="51.942642" lon="-1.638022"><ele>197.21</ele><time>2011-08-24T09:41:58Z</time></trkpt><trkpt lat="51.942672" lon="-1.637957"><ele>195.28</ele><time>2011-08-24T09:42:07Z</time></trkpt><trkpt lat="51.942682" lon="-1.637881"><ele>195.28</ele><time>2011-08-24T09:42:13Z</time></trkpt><trkpt lat="51.942730" lon="-1.637740"><ele>197.69</ele><time>2011-08-24T09:42:26Z</time></trkpt><trkpt lat="51.942801" lon="-1.637559"><ele>198.65</ele><time>2011-08-24T09:42:35Z</time></trkpt><trkpt lat="51.942845" lon="-1.637388"><ele>198.17</ele><time>2011-08-24T09:42:46Z</time></trkpt><trkpt lat="51.942881" lon="-1.637279"><ele>199.61</ele><time>2011-08-24T09:42:55Z</time></trkpt><trkpt lat="51.942947" lon="-1.637122"><ele>201.53</ele><time>2011-08-24T09:43:06Z</time></trkpt><trkpt lat="51.942995" lon="-1.637013"><ele>200.57</ele><time>2011-08-24T09:43:13Z</time></trkpt><trkpt lat="51.943053" lon="-1.636901"><ele>199.13</ele><time>2011-08-24T09:43:22Z</time></trkpt><trkpt lat="51.943077" lon="-1.636751"><ele>197.69</ele><time>2011-08-24T09:43:30Z</time></trkpt><trkpt lat="51.943116" lon="-1.636686"><ele>198.17</ele><time>2011-08-24T09:43:35Z</time></trkpt><trkpt lat="51.943147" lon="-1.636652"><ele>197.69</ele><time>2011-08-24T09:43:39Z</time></trkpt><trkpt lat="51.943176" lon="-1.636551"><ele>197.21</ele><time>2011-08-24T09:43:46Z</time></trkpt><trkpt lat="51.943200" lon="-1.636454"><ele>196.25</ele><time>2011-08-24T09:43:53Z</time></trkpt><trkpt lat="51.943225" lon="-1.636326"><ele>195.28</ele><time>2011-08-24T09:44:03Z</time></trkpt><trkpt lat="51.943294" lon="-1.636209"><ele>192.88</ele><time>2011-08-24T09:44:16Z</time></trkpt><trkpt lat="51.943354" lon="-1.636037"><ele>189.52</ele><time>2011-08-24T09:44:33Z</time></trkpt><trkpt lat="51.943411" lon="-1.635899"><ele>188.08</ele><time>2011-08-24T09:44:46Z</time></trkpt><trkpt lat="51.943450" lon="-1.635745"><ele>192.40</ele><time>2011-08-24T09:44:58Z</time></trkpt><trkpt lat="51.943498" lon="-1.635674"><ele>194.80</ele><time>2011-08-24T09:45:06Z</time></trkpt><trkpt lat="51.943549" lon="-1.635580"><ele>195.77</ele><time>2011-08-24T09:45:16Z</time></trkpt><trkpt lat="51.943575" lon="-1.635493"><ele>195.77</ele><time>2011-08-24T09:45:24Z</time></trkpt><trkpt lat="51.943602" lon="-1.635390"><ele>195.28</ele><time>2011-08-24T09:45:33Z</time></trkpt><trkpt lat="51.943649" lon="-1.635303"><ele>196.25</ele><time>2011-08-24T09:45:43Z</time></trkpt><trkpt lat="51.943676" lon="-1.635204"><ele>196.73</ele><time>2011-08-24T09:45:52Z</time></trkpt><trkpt lat="51.943722" lon="-1.635100"><ele>197.21</ele><time>2011-08-24T09:46:01Z</time></trkpt><trkpt lat="51.943764" lon="-1.635002"><ele>197.69</ele><time>2011-08-24T09:46:09Z</time></trkpt><trkpt lat="51.943810" lon="-1.634908"><ele>198.65</ele><time>2011-08-24T09:46:18Z</time></trkpt><trkpt lat="51.943855" lon="-1.634810"><ele>199.61</ele><time>2011-08-24T09:46:27Z</time></trkpt><trkpt lat="51.943905" lon="-1.634732"><ele>199.61</ele><time>2011-08-24T09:46:35Z</time></trkpt><trkpt lat="51.943944" lon="-1.634632"><ele>198.65</ele><time>2011-08-24T09:46:44Z</time></trkpt><trkpt lat="51.943983" lon="-1.634549"><ele>200.09</ele><time>2011-08-24T09:46:52Z</time></trkpt><trkpt lat="51.944015" lon="-1.634469"><ele>200.09</ele><time>2011-08-24T09:46:59Z</time></trkpt><trkpt lat="51.944045" lon="-1.634389"><ele>200.09</ele><time>2011-08-24T09:47:06Z</time></trkpt><trkpt lat="51.944083" lon="-1.634292"><ele>200.57</ele><time>2011-08-24T09:47:15Z</time></trkpt><trkpt lat="51.944110" lon="-1.634176"><ele>200.57</ele><time>2011-08-24T09:47:24Z</time></trkpt><trkpt lat="51.944133" lon="-1.634092"><ele>200.09</ele><time>2011-08-24T09:47:30Z</time></trkpt><trkpt lat="51.944159" lon="-1.634008"><ele>199.61</ele><time>2011-08-24T09:47:36Z</time></trkpt><trkpt lat="51.944222" lon="-1.633937"><ele>199.61</ele><time>2011-08-24T09:47:44Z</time></trkpt><trkpt lat="51.944275" lon="-1.633869"><ele>200.09</ele><time>2011-08-24T09:47:52Z</time></trkpt><trkpt lat="51.944302" lon="-1.633835"><ele>200.57</ele><time>2011-08-24T09:47:59Z</time></trkpt><trkpt lat="51.944316" lon="-1.633792"><ele>202.01</ele><time>2011-08-24T09:48:07Z</time></trkpt><trkpt lat="51.944308" lon="-1.633763"><ele>202.49</ele><time>2011-08-24T09:48:10Z</time></trkpt><trkpt lat="51.944282" lon="-1.633674"><ele>204.42</ele><time>2011-08-24T09:48:18Z</time></trkpt><trkpt lat="51.944283" lon="-1.633624"><ele>205.86</ele><time>2011-08-24T09:48:22Z</time></trkpt><trkpt lat="51.944299" lon="-1.633486"><ele>206.82</ele><time>2011-08-24T09:48:31Z</time></trkpt><trkpt lat="51.944314" lon="-1.633425"><ele>205.86</ele><time>2011-08-24T09:48:38Z</time></trkpt><trkpt lat="51.944327" lon="-1.633374"><ele>206.34</ele><time>2011-08-24T09:48:44Z</time></trkpt><trkpt lat="51.944356" lon="-1.633341"><ele>206.82</ele><time>2011-08-24T09:49:00Z</time></trkpt><trkpt lat="51.944374" lon="-1.633310"><ele>206.82</ele><time>2011-08-24T09:49:10Z</time></trkpt><trkpt lat="51.944415" lon="-1.633222"><ele>208.26</ele><time>2011-08-24T09:49:18Z</time></trkpt><trkpt lat="51.944439" lon="-1.633146"><ele>208.26</ele><time>2011-08-24T09:49:24Z</time></trkpt><trkpt lat="51.944460" lon="-1.633058"><ele>208.26</ele><time>2011-08-24T09:49:31Z</time></trkpt><trkpt lat="51.944482" lon="-1.632953"><ele>207.78</ele><time>2011-08-24T09:49:39Z</time></trkpt><trkpt lat="51.944511" lon="-1.632869"><ele>208.26</ele><time>2011-08-24T09:49:46Z</time></trkpt><trkpt lat="51.944534" lon="-1.632764"><ele>207.78</ele><time>2011-08-24T09:49:53Z</time></trkpt><trkpt lat="51.944551" lon="-1.632640"><ele>207.30</ele><time>2011-08-24T09:50:01Z</time></trkpt><trkpt lat="51.944560" lon="-1.632539"><ele>207.78</ele><time>2011-08-24T09:50:08Z</time></trkpt><trkpt lat="51.944569" lon="-1.632444"><ele>208.26</ele><time>2011-08-24T09:50:16Z</time></trkpt><trkpt lat="51.944591" lon="-1.632409"><ele>208.74</ele><time>2011-08-24T09:50:28Z</time></trkpt><trkpt lat="51.944628" lon="-1.632399"><ele>210.19</ele><time>2011-08-24T09:50:43Z</time></trkpt><trkpt lat="51.944676" lon="-1.632406"><ele>212.59</ele><time>2011-08-24T09:50:50Z</time></trkpt><trkpt lat="51.944699" lon="-1.632406"><ele>212.59</ele><time>2011-08-24T09:50:56Z</time></trkpt><trkpt lat="51.944755" lon="-1.632415"><ele>211.63</ele><time>2011-08-24T09:51:03Z</time></trkpt><trkpt lat="51.944805" lon="-1.632429"><ele>211.63</ele><time>2011-08-24T09:51:10Z</time></trkpt><trkpt lat="51.944853" lon="-1.632446"><ele>211.15</ele><time>2011-08-24T09:51:16Z</time></trkpt><trkpt lat="51.944906" lon="-1.632445"><ele>210.67</ele><time>2011-08-24T09:51:22Z</time></trkpt><trkpt lat="51.944967" lon="-1.632449"><ele>210.19</ele><time>2011-08-24T09:51:29Z</time></trkpt><trkpt lat="51.945046" lon="-1.632475"><ele>209.70</ele><time>2011-08-24T09:51:37Z</time></trkpt><trkpt lat="51.945096" lon="-1.632472"><ele>209.22</ele><time>2011-08-24T09:51:44Z</time></trkpt><trkpt lat="51.945111" lon="-1.632469"><ele>209.70</ele><time>2011-08-24T09:51:57Z</time></trkpt><trkpt lat="51.945119" lon="-1.632475"><ele>209.22</ele><time>2011-08-24T09:52:09Z</time></trkpt><trkpt lat="51.945150" lon="-1.632446"><ele>209.70</ele><time>2011-08-24T09:52:17Z</time></trkpt><trkpt lat="51.945160" lon="-1.632445"><ele>210.19</ele><time>2011-08-24T09:52:31Z</time></trkpt><trkpt lat="51.945185" lon="-1.632484"><ele>208.26</ele><time>2011-08-24T09:52:39Z</time></trkpt><trkpt lat="51.945195" lon="-1.632480"><ele>208.74</ele><time>2011-08-24T09:52:48Z</time></trkpt><trkpt lat="51.945194" lon="-1.632479"><ele>208.74</ele><time>2011-08-24T09:52:50Z</time></trkpt><trkpt lat="51.945200" lon="-1.632486"><ele>208.26</ele><time>2011-08-24T09:52:53Z</time></trkpt><trkpt lat="51.945325" lon="-1.632510"><ele>207.78</ele><time>2011-08-24T09:53:05Z</time></trkpt><trkpt lat="51.945422" lon="-1.632524"><ele>207.30</ele><time>2011-08-24T09:53:14Z</time></trkpt><trkpt lat="51.945524" lon="-1.632537"><ele>206.82</ele><time>2011-08-24T09:53:23Z</time></trkpt><trkpt lat="51.945651" lon="-1.632536"><ele>206.82</ele><time>2011-08-24T09:53:34Z</time></trkpt><trkpt lat="51.945748" lon="-1.632529"><ele>206.82</ele><time>2011-08-24T09:53:43Z</time></trkpt><trkpt lat="51.945791" lon="-1.632532"><ele>206.82</ele><time>2011-08-24T09:53:47Z</time></trkpt><trkpt lat="51.945901" lon="-1.632502"><ele>207.30</ele><time>2011-08-24T09:53:58Z</time></trkpt><trkpt lat="51.945944" lon="-1.632470"><ele>207.30</ele><time>2011-08-24T09:54:03Z</time></trkpt><trkpt lat="51.946035" lon="-1.632452"><ele>207.30</ele><time>2011-08-24T09:54:13Z</time></trkpt><trkpt lat="51.946129" lon="-1.632445"><ele>207.30</ele><time>2011-08-24T09:54:21Z</time></trkpt><trkpt lat="51.946214" lon="-1.632423"><ele>207.78</ele><time>2011-08-24T09:54:29Z</time></trkpt><trkpt lat="51.946323" lon="-1.632397"><ele>208.26</ele><time>2011-08-24T09:54:39Z</time></trkpt><trkpt lat="51.946415" lon="-1.632382"><ele>208.74</ele><time>2011-08-24T09:54:48Z</time></trkpt><trkpt lat="51.946494" lon="-1.632366"><ele>208.74</ele><time>2011-08-24T09:54:56Z</time></trkpt><trkpt lat="51.946587" lon="-1.632335"><ele>209.22</ele><time>2011-08-24T09:55:05Z</time></trkpt><trkpt lat="51.946661" lon="-1.632312"><ele>209.22</ele><time>2011-08-24T09:55:13Z</time></trkpt><trkpt lat="51.946759" lon="-1.632307"><ele>209.22</ele><time>2011-08-24T09:55:22Z</time></trkpt><trkpt lat="51.946838" lon="-1.632293"><ele>209.22</ele><time>2011-08-24T09:55:29Z</time></trkpt><trkpt lat="51.946926" lon="-1.632275"><ele>209.22</ele><time>2011-08-24T09:55:37Z</time></trkpt><trkpt lat="51.947033" lon="-1.632259"><ele>209.22</ele><time>2011-08-24T09:55:47Z</time></trkpt><trkpt lat="51.947136" lon="-1.632245"><ele>208.74</ele><time>2011-08-24T09:55:56Z</time></trkpt><trkpt lat="51.947248" lon="-1.632232"><ele>209.22</ele><time>2011-08-24T09:56:06Z</time></trkpt><trkpt lat="51.947345" lon="-1.632208"><ele>209.22</ele><time>2011-08-24T09:56:15Z</time></trkpt><trkpt lat="51.947441" lon="-1.632190"><ele>209.70</ele><time>2011-08-24T09:56:24Z</time></trkpt><trkpt lat="51.947566" lon="-1.632182"><ele>208.26</ele><time>2011-08-24T09:56:36Z</time></trkpt><trkpt lat="51.947675" lon="-1.632208"><ele>206.34</ele><time>2011-08-24T09:56:46Z</time></trkpt><trkpt lat="51.947697" lon="-1.632192"><ele>206.82</ele><time>2011-08-24T09:56:55Z</time></trkpt><trkpt lat="51.947708" lon="-1.632190"><ele>206.82</ele><time>2011-08-24T09:57:05Z</time></trkpt><trkpt lat="51.947711" lon="-1.632177"><ele>206.34</ele><time>2011-08-24T09:57:15Z</time></trkpt><trkpt lat="51.947714" lon="-1.632178"><ele>206.82</ele><time>2011-08-24T09:57:25Z</time></trkpt><trkpt lat="51.947814" lon="-1.632226"><ele>206.82</ele><time>2011-08-24T09:57:35Z</time></trkpt><trkpt lat="51.947813" lon="-1.632261"><ele>206.34</ele><time>2011-08-24T09:57:42Z</time></trkpt><trkpt lat="51.947870" lon="-1.632268"><ele>205.86</ele><time>2011-08-24T09:58:01Z</time></trkpt><trkpt lat="51.947989" lon="-1.632321"><ele>205.38</ele><time>2011-08-24T09:58:12Z</time></trkpt><trkpt lat="51.948023" lon="-1.632339"><ele>207.30</ele><time>2011-08-24T09:58:17Z</time></trkpt><trkpt lat="51.948083" lon="-1.632279"><ele>208.74</ele><time>2011-08-24T09:58:23Z</time></trkpt><trkpt lat="51.948149" lon="-1.632315"><ele>208.74</ele><time>2011-08-24T09:58:30Z</time></trkpt><trkpt lat="51.948252" lon="-1.632347"><ele>208.74</ele><time>2011-08-24T09:58:39Z</time></trkpt><trkpt lat="51.948338" lon="-1.632367"><ele>209.22</ele><time>2011-08-24T09:58:48Z</time></trkpt><trkpt lat="51.948389" lon="-1.632364"><ele>209.22</ele><time>2011-08-24T09:58:57Z</time></trkpt><trkpt lat="51.948427" lon="-1.632360"><ele>209.22</ele><time>2011-08-24T09:59:04Z</time></trkpt><trkpt lat="51.948430" lon="-1.632346"><ele>208.74</ele><time>2011-08-24T09:59:13Z</time></trkpt><trkpt lat="51.948514" lon="-1.632353"><ele>208.74</ele><time>2011-08-24T09:59:22Z</time></trkpt><trkpt lat="51.948640" lon="-1.632322"><ele>208.74</ele><time>2011-08-24T09:59:33Z</time></trkpt><trkpt lat="51.948704" lon="-1.632311"><ele>208.74</ele><time>2011-08-24T09:59:42Z</time></trkpt><trkpt lat="51.948732" lon="-1.632316"><ele>209.22</ele><time>2011-08-24T09:59:55Z</time></trkpt><trkpt lat="51.948804" lon="-1.632308"><ele>209.22</ele><time>2011-08-24T10:00:03Z</time></trkpt><trkpt lat="51.948852" lon="-1.632299"><ele>209.22</ele><time>2011-08-24T10:00:24Z</time></trkpt><trkpt lat="51.948868" lon="-1.632299"><ele>209.22</ele><time>2011-08-24T10:00:43Z</time></trkpt><trkpt lat="51.948994" lon="-1.632301"><ele>210.67</ele><time>2011-08-24T10:00:54Z</time></trkpt><trkpt lat="51.949010" lon="-1.632280"><ele>210.19</ele><time>2011-08-24T10:01:10Z</time></trkpt><trkpt lat="51.949097" lon="-1.632266"><ele>211.15</ele><time>2011-08-24T10:01:19Z</time></trkpt><trkpt lat="51.949103" lon="-1.632259"><ele>210.67</ele><time>2011-08-24T10:01:29Z</time></trkpt><trkpt lat="51.949122" lon="-1.632280"><ele>210.67</ele><time>2011-08-24T10:01:38Z</time></trkpt><trkpt lat="51.949159" lon="-1.632273"><ele>211.63</ele><time>2011-08-24T10:01:47Z</time></trkpt><trkpt lat="51.949193" lon="-1.632263"><ele>212.11</ele><time>2011-08-24T10:01:56Z</time></trkpt><trkpt lat="51.949305" lon="-1.632200"><ele>213.07</ele><time>2011-08-24T10:02:06Z</time></trkpt><trkpt lat="51.949400" lon="-1.632159"><ele>213.55</ele><time>2011-08-24T10:02:14Z</time></trkpt><trkpt lat="51.949540" lon="-1.632113"><ele>214.03</ele><time>2011-08-24T10:02:26Z</time></trkpt><trkpt lat="51.949663" lon="-1.632039"><ele>215.47</ele><time>2011-08-24T10:02:37Z</time></trkpt><trkpt lat="51.949792" lon="-1.632023"><ele>216.43</ele><time>2011-08-24T10:02:49Z</time></trkpt><trkpt lat="51.949846" lon="-1.632031"><ele>215.95</ele><time>2011-08-24T10:02:59Z</time></trkpt><trkpt lat="51.949866" lon="-1.632047"><ele>214.99</ele><time>2011-08-24T10:03:05Z</time></trkpt><trkpt lat="51.949956" lon="-1.632138"><ele>213.55</ele><time>2011-08-24T10:03:14Z</time></trkpt><trkpt lat="51.950066" lon="-1.632219"><ele>213.55</ele><time>2011-08-24T10:03:24Z</time></trkpt><trkpt lat="51.950072" lon="-1.632251"><ele>213.55</ele><time>2011-08-24T10:03:33Z</time></trkpt><trkpt lat="51.950067" lon="-1.632226"><ele>213.55</ele><time>2011-08-24T10:03:45Z</time></trkpt><trkpt lat="51.950074" lon="-1.632256"><ele>214.51</ele><time>2011-08-24T10:03:53Z</time></trkpt><trkpt lat="51.950076" lon="-1.632271"><ele>214.03</ele><time>2011-08-24T10:04:06Z</time></trkpt><trkpt lat="51.950079" lon="-1.632263"><ele>213.55</ele><time>2011-08-24T10:04:21Z</time></trkpt><trkpt lat="51.950087" lon="-1.632269"><ele>212.11</ele><time>2011-08-24T10:04:28Z</time></trkpt><trkpt lat="51.950104" lon="-1.632283"><ele>211.63</ele><time>2011-08-24T10:04:36Z</time></trkpt><trkpt lat="51.950155" lon="-1.632280"><ele>212.11</ele><time>2011-08-24T10:04:42Z</time></trkpt><trkpt lat="51.950254" lon="-1.632356"><ele>212.59</ele><time>2011-08-24T10:04:52Z</time></trkpt><trkpt lat="51.950364" lon="-1.632437"><ele>213.07</ele><time>2011-08-24T10:05:02Z</time></trkpt><trkpt lat="51.950376" lon="-1.632445"><ele>213.55</ele><time>2011-08-24T10:05:14Z</time></trkpt><trkpt lat="51.950420" lon="-1.632478"><ele>214.03</ele><time>2011-08-24T10:05:23Z</time></trkpt><trkpt lat="51.950592" lon="-1.632598"><ele>214.51</ele><time>2011-08-24T10:05:37Z</time></trkpt><trkpt lat="51.950751" lon="-1.632705"><ele>214.99</ele><time>2011-08-24T10:05:50Z</time></trkpt><trkpt lat="51.950892" lon="-1.632804"><ele>215.95</ele><time>2011-08-24T10:06:01Z</time></trkpt><trkpt lat="51.951012" lon="-1.632884"><ele>215.95</ele><time>2011-08-24T10:06:11Z</time></trkpt><trkpt lat="51.951031" lon="-1.632892"><ele>216.43</ele><time>2011-08-24T10:06:23Z</time></trkpt><trkpt lat="51.951081" lon="-1.632927"><ele>216.91</ele><time>2011-08-24T10:06:31Z</time></trkpt><trkpt lat="51.951236" lon="-1.633023"><ele>217.40</ele><time>2011-08-24T10:06:43Z</time></trkpt><trkpt lat="51.951349" lon="-1.633102"><ele>217.88</ele><time>2011-08-24T10:06:53Z</time></trkpt><trkpt lat="51.951487" lon="-1.633190"><ele>218.36</ele><time>2011-08-24T10:07:05Z</time></trkpt><trkpt lat="51.951622" lon="-1.633268"><ele>218.84</ele><time>2011-08-24T10:07:17Z</time></trkpt><trkpt lat="51.951651" lon="-1.633298"><ele>218.36</ele><time>2011-08-24T10:07:23Z</time></trkpt><trkpt lat="51.951734" lon="-1.633342"><ele>215.95</ele><time>2011-08-24T10:07:34Z</time></trkpt><trkpt lat="51.951739" lon="-1.633341"><ele>215.47</ele><time>2011-08-24T10:07:44Z</time></trkpt><trkpt lat="51.951739" lon="-1.633343"><ele>214.99</ele><time>2011-08-24T10:08:07Z</time></trkpt><trkpt lat="51.951738" lon="-1.633342"><ele>214.99</ele><time>2011-08-24T10:08:32Z</time></trkpt><trkpt lat="51.951742" lon="-1.633345"><ele>214.03</ele><time>2011-08-24T10:08:56Z</time></trkpt><trkpt lat="51.951753" lon="-1.633355"><ele>212.11</ele><time>2011-08-24T10:10:25Z</time></trkpt><trkpt lat="51.951755" lon="-1.633353"><ele>212.11</ele><time>2011-08-24T10:12:09Z</time></trkpt><trkpt lat="51.951755" lon="-1.633351"><ele>212.11</ele><time>2011-08-24T10:12:43Z</time></trkpt><trkpt lat="51.951755" lon="-1.633350"><ele>211.63</ele><time>2011-08-24T10:13:24Z</time></trkpt><trkpt lat="51.951755" lon="-1.633340"><ele>211.15</ele><time>2011-08-24T10:13:36Z</time></trkpt><trkpt lat="51.951751" lon="-1.633342"><ele>212.11</ele><time>2011-08-24T10:13:43Z</time></trkpt><trkpt lat="51.951757" lon="-1.633337"><ele>211.15</ele><time>2011-08-24T10:14:17Z</time></trkpt><trkpt lat="51.951763" lon="-1.633328"><ele>210.19</ele><time>2011-08-24T10:14:43Z</time></trkpt><trkpt lat="51.951759" lon="-1.633313"><ele>210.19</ele><time>2011-08-24T10:15:54Z</time></trkpt><trkpt lat="51.951759" lon="-1.633315"><ele>210.19</ele><time>2011-08-24T10:16:11Z</time></trkpt><trkpt lat="51.951755" lon="-1.633325"><ele>210.67</ele><time>2011-08-24T10:16:22Z</time></trkpt><trkpt lat="51.951752" lon="-1.633326"><ele>210.67</ele><time>2011-08-24T10:16:51Z</time></trkpt><trkpt lat="51.951752" lon="-1.633321"><ele>210.67</ele><time>2011-08-24T10:17:09Z</time></trkpt><trkpt lat="51.951752" lon="-1.633324"><ele>210.67</ele><time>2011-08-24T10:21:21Z</time></trkpt><trkpt lat="51.951744" lon="-1.633330"><ele>211.15</ele><time>2011-08-24T10:21:50Z</time></trkpt><trkpt lat="51.951749" lon="-1.633340"><ele>211.63</ele><time>2011-08-24T10:21:58Z</time></trkpt><trkpt lat="51.951762" lon="-1.633339"><ele>212.11</ele><time>2011-08-24T10:22:12Z</time></trkpt><trkpt lat="51.951799" lon="-1.633364"><ele>212.59</ele><time>2011-08-24T10:22:32Z</time></trkpt><trkpt lat="51.951880" lon="-1.633420"><ele>212.11</ele><time>2011-08-24T10:22:41Z</time></trkpt><trkpt lat="51.951997" lon="-1.633486"><ele>212.59</ele><time>2011-08-24T10:22:51Z</time></trkpt><trkpt lat="51.952098" lon="-1.633546"><ele>213.07</ele><time>2011-08-24T10:23:00Z</time></trkpt><trkpt lat="51.952239" lon="-1.633604"><ele>214.03</ele><time>2011-08-24T10:23:12Z</time></trkpt><trkpt lat="51.952402" lon="-1.633669"><ele>214.99</ele><time>2011-08-24T10:23:25Z</time></trkpt><trkpt lat="51.952565" lon="-1.633737"><ele>215.47</ele><time>2011-08-24T10:23:38Z</time></trkpt><trkpt lat="51.952753" lon="-1.633795"><ele>214.99</ele><time>2011-08-24T10:23:52Z</time></trkpt><trkpt lat="51.952856" lon="-1.633837"><ele>214.99</ele><time>2011-08-24T10:24:01Z</time></trkpt><trkpt lat="51.953036" lon="-1.633896"><ele>214.99</ele><time>2011-08-24T10:24:15Z</time></trkpt><trkpt lat="51.953203" lon="-1.633939"><ele>215.47</ele><time>2011-08-24T10:24:28Z</time></trkpt><trkpt lat="51.953326" lon="-1.633970"><ele>214.99</ele><time>2011-08-24T10:24:38Z</time></trkpt><trkpt lat="51.953464" lon="-1.634007"><ele>214.99</ele><time>2011-08-24T10:24:50Z</time></trkpt><trkpt lat="51.953562" lon="-1.634044"><ele>214.99</ele><time>2011-08-24T10:25:01Z</time></trkpt><trkpt lat="51.953624" lon="-1.634067"><ele>214.99</ele><time>2011-08-24T10:25:08Z</time></trkpt><trkpt lat="51.953717" lon="-1.634097"><ele>214.99</ele><time>2011-08-24T10:25:17Z</time></trkpt><trkpt lat="51.953810" lon="-1.634118"><ele>214.99</ele><time>2011-08-24T10:25:26Z</time></trkpt><trkpt lat="51.953901" lon="-1.634141"><ele>214.99</ele><time>2011-08-24T10:25:35Z</time></trkpt><trkpt lat="51.954003" lon="-1.634168"><ele>214.99</ele><time>2011-08-24T10:25:45Z</time></trkpt><trkpt lat="51.954109" lon="-1.634189"><ele>214.99</ele><time>2011-08-24T10:25:55Z</time></trkpt><trkpt lat="51.954213" lon="-1.634222"><ele>214.99</ele><time>2011-08-24T10:26:05Z</time></trkpt><trkpt lat="51.954326" lon="-1.634250"><ele>214.99</ele><time>2011-08-24T10:26:16Z</time></trkpt><trkpt lat="51.954425" lon="-1.634274"><ele>214.99</ele><time>2011-08-24T10:26:26Z</time></trkpt><trkpt lat="51.954544" lon="-1.634308"><ele>214.51</ele><time>2011-08-24T10:26:38Z</time></trkpt><trkpt lat="51.954638" lon="-1.634326"><ele>214.03</ele><time>2011-08-24T10:26:47Z</time></trkpt><trkpt lat="51.954734" lon="-1.634358"><ele>214.03</ele><time>2011-08-24T10:26:56Z</time></trkpt><trkpt lat="51.954835" lon="-1.634396"><ele>214.03</ele><time>2011-08-24T10:27:05Z</time></trkpt><trkpt lat="51.954928" lon="-1.634417"><ele>214.03</ele><time>2011-08-24T10:27:14Z</time></trkpt><trkpt lat="51.955038" lon="-1.634450"><ele>214.03</ele><time>2011-08-24T10:27:24Z</time></trkpt><trkpt lat="51.955116" lon="-1.634469"><ele>213.55</ele><time>2011-08-24T10:27:31Z</time></trkpt><trkpt lat="51.955145" lon="-1.634473"><ele>213.55</ele><time>2011-08-24T10:27:36Z</time></trkpt><trkpt lat="51.955178" lon="-1.634498"><ele>213.07</ele><time>2011-08-24T10:27:40Z</time></trkpt><trkpt lat="51.955306" lon="-1.634529"><ele>212.59</ele><time>2011-08-24T10:27:51Z</time></trkpt><trkpt lat="51.955371" lon="-1.634574"><ele>211.15</ele><time>2011-08-24T10:28:00Z</time></trkpt><trkpt lat="51.955430" lon="-1.634590"><ele>210.67</ele><time>2011-08-24T10:28:06Z</time></trkpt><trkpt lat="51.955507" lon="-1.634609"><ele>210.19</ele><time>2011-08-24T10:28:14Z</time></trkpt><trkpt lat="51.955613" lon="-1.634628"><ele>209.22</ele><time>2011-08-24T10:28:24Z</time></trkpt><trkpt lat="51.955696" lon="-1.634659"><ele>208.74</ele><time>2011-08-24T10:28:33Z</time></trkpt><trkpt lat="51.955756" lon="-1.634666"><ele>208.74</ele><time>2011-08-24T10:28:40Z</time></trkpt><trkpt lat="51.955848" lon="-1.634694"><ele>208.74</ele><time>2011-08-24T10:28:50Z</time></trkpt><trkpt lat="51.955945" lon="-1.634721"><ele>208.26</ele><time>2011-08-24T10:29:00Z</time></trkpt><trkpt lat="51.956026" lon="-1.634738"><ele>208.74</ele><time>2011-08-24T10:29:08Z</time></trkpt><trkpt lat="51.956096" lon="-1.634754"><ele>209.70</ele><time>2011-08-24T10:29:17Z</time></trkpt><trkpt lat="51.956163" lon="-1.634773"><ele>210.67</ele><time>2011-08-24T10:29:25Z</time></trkpt><trkpt lat="51.956229" lon="-1.634788"><ele>212.59</ele><time>2011-08-24T10:29:33Z</time></trkpt><trkpt lat="51.956283" lon="-1.634782"><ele>213.55</ele><time>2011-08-24T10:29:42Z</time></trkpt><trkpt lat="51.956404" lon="-1.634773"><ele>214.03</ele><time>2011-08-24T10:29:57Z</time></trkpt><trkpt lat="51.956416" lon="-1.634763"><ele>214.03</ele><time>2011-08-24T10:29:58Z</time></trkpt><trkpt lat="51.956471" lon="-1.634713"><ele>214.51</ele><time>2011-08-24T10:30:03Z</time></trkpt><trkpt lat="51.956525" lon="-1.634636"><ele>214.99</ele><time>2011-08-24T10:30:13Z</time></trkpt><trkpt lat="51.956532" lon="-1.634631"><ele>214.03</ele><time>2011-08-24T10:30:30Z</time></trkpt><trkpt lat="51.956598" lon="-1.634526"><ele>215.47</ele><time>2011-08-24T10:30:42Z</time></trkpt><trkpt lat="51.956631" lon="-1.634561"><ele>217.88</ele><time>2011-08-24T10:30:52Z</time></trkpt><trkpt lat="51.956628" lon="-1.634584"><ele>218.36</ele><time>2011-08-24T10:30:54Z</time></trkpt><trkpt lat="51.956634" lon="-1.634649"><ele>218.36</ele><time>2011-08-24T10:31:00Z</time></trkpt><trkpt lat="51.956670" lon="-1.634725"><ele>218.36</ele><time>2011-08-24T10:31:08Z</time></trkpt><trkpt lat="51.956708" lon="-1.634820"><ele>217.40</ele><time>2011-08-24T10:31:16Z</time></trkpt><trkpt lat="51.956710" lon="-1.634834"><ele>217.40</ele><time>2011-08-24T10:31:17Z</time></trkpt><trkpt lat="51.956737" lon="-1.634983"><ele>216.43</ele><time>2011-08-24T10:31:26Z</time></trkpt><trkpt lat="51.956754" lon="-1.635090"><ele>215.95</ele><time>2011-08-24T10:31:32Z</time></trkpt><trkpt lat="51.956764" lon="-1.635185"><ele>214.99</ele><time>2011-08-24T10:31:36Z</time></trkpt><trkpt lat="51.956758" lon="-1.635311"><ele>214.51</ele><time>2011-08-24T10:31:44Z</time></trkpt><trkpt lat="51.956731" lon="-1.635429"><ele>214.03</ele><time>2011-08-24T10:31:54Z</time></trkpt><trkpt lat="51.956723" lon="-1.635540"><ele>214.03</ele><time>2011-08-24T10:32:04Z</time></trkpt><trkpt lat="51.956712" lon="-1.635733"><ele>215.47</ele><time>2011-08-24T10:32:17Z</time></trkpt><trkpt lat="51.956688" lon="-1.635901"><ele>215.95</ele><time>2011-08-24T10:32:28Z</time></trkpt><trkpt lat="51.956696" lon="-1.636091"><ele>217.40</ele><time>2011-08-24T10:32:41Z</time></trkpt><trkpt lat="51.956680" lon="-1.636245"><ele>218.36</ele><time>2011-08-24T10:32:52Z</time></trkpt><trkpt lat="51.956693" lon="-1.636383"><ele>218.36</ele><time>2011-08-24T10:33:02Z</time></trkpt><trkpt lat="51.956669" lon="-1.636524"><ele>217.40</ele><time>2011-08-24T10:33:12Z</time></trkpt><trkpt lat="51.956666" lon="-1.636679"><ele>215.95</ele><time>2011-08-24T10:33:22Z</time></trkpt><trkpt lat="51.956658" lon="-1.636710"><ele>213.55</ele><time>2011-08-24T10:33:32Z</time></trkpt><trkpt lat="51.956681" lon="-1.636704"><ele>207.78</ele><time>2011-08-24T10:34:09Z</time></trkpt><trkpt lat="51.956687" lon="-1.636760"><ele>207.30</ele><time>2011-08-24T10:34:13Z</time></trkpt><trkpt lat="51.956701" lon="-1.636903"><ele>206.82</ele><time>2011-08-24T10:34:20Z</time></trkpt><trkpt lat="51.956692" lon="-1.636985"><ele>206.34</ele><time>2011-08-24T10:34:24Z</time></trkpt><trkpt lat="51.956685" lon="-1.637025"><ele>205.86</ele><time>2011-08-24T10:34:26Z</time></trkpt><trkpt lat="51.956648" lon="-1.637126"><ele>204.90</ele><time>2011-08-24T10:34:31Z</time></trkpt><trkpt lat="51.956643" lon="-1.637205"><ele>204.90</ele><time>2011-08-24T10:34:35Z</time></trkpt><trkpt lat="51.956637" lon="-1.637339"><ele>204.42</ele><time>2011-08-24T10:34:42Z</time></trkpt><trkpt lat="51.956622" lon="-1.637492"><ele>202.01</ele><time>2011-08-24T10:34:50Z</time></trkpt><trkpt lat="51.956618" lon="-1.637510"><ele>201.53</ele><time>2011-08-24T10:34:51Z</time></trkpt><trkpt lat="51.956602" lon="-1.637676"><ele>200.09</ele><time>2011-08-24T10:34:59Z</time></trkpt><trkpt lat="51.956600" lon="-1.637694"><ele>199.61</ele><time>2011-08-24T10:35:00Z</time></trkpt><trkpt lat="51.956581" lon="-1.637806"><ele>198.65</ele><time>2011-08-24T10:35:06Z</time></trkpt><trkpt lat="51.956587" lon="-1.637932"><ele>198.17</ele><time>2011-08-24T10:35:13Z</time></trkpt><trkpt lat="51.956601" lon="-1.638071"><ele>197.69</ele><time>2011-08-24T10:35:21Z</time></trkpt><trkpt lat="51.956601" lon="-1.638088"><ele>197.69</ele><time>2011-08-24T10:35:22Z</time></trkpt><trkpt lat="51.956620" lon="-1.638211"><ele>198.17</ele><time>2011-08-24T10:35:30Z</time></trkpt><trkpt lat="51.956607" lon="-1.638345"><ele>200.57</ele><time>2011-08-24T10:35:37Z</time></trkpt><trkpt lat="51.956650" lon="-1.638473"><ele>201.05</ele><time>2011-08-24T10:35:45Z</time></trkpt><trkpt lat="51.956657" lon="-1.638546"><ele>200.57</ele><time>2011-08-24T10:35:51Z</time></trkpt><trkpt lat="51.956683" lon="-1.638655"><ele>198.17</ele><time>2011-08-24T10:35:59Z</time></trkpt><trkpt lat="51.956722" lon="-1.638746"><ele>198.65</ele><time>2011-08-24T10:36:08Z</time></trkpt><trkpt lat="51.956736" lon="-1.638828"><ele>198.17</ele><time>2011-08-24T10:36:16Z</time></trkpt><trkpt lat="51.956719" lon="-1.638902"><ele>197.21</ele><time>2011-08-24T10:36:23Z</time></trkpt><trkpt lat="51.956702" lon="-1.639046"><ele>195.77</ele><time>2011-08-24T10:36:34Z</time></trkpt><trkpt lat="51.956692" lon="-1.639191"><ele>193.36</ele><time>2011-08-24T10:36:44Z</time></trkpt><trkpt lat="51.956729" lon="-1.639320"><ele>191.92</ele><time>2011-08-24T10:36:54Z</time></trkpt><trkpt lat="51.956754" lon="-1.639424"><ele>191.92</ele><time>2011-08-24T10:37:03Z</time></trkpt><trkpt lat="51.956757" lon="-1.639518"><ele>191.44</ele><time>2011-08-24T10:37:10Z</time></trkpt><trkpt lat="51.956759" lon="-1.639642"><ele>189.52</ele><time>2011-08-24T10:37:18Z</time></trkpt><trkpt lat="51.956760" lon="-1.639726"><ele>189.04</ele><time>2011-08-24T10:37:24Z</time></trkpt><trkpt lat="51.956757" lon="-1.639823"><ele>190.00</ele><time>2011-08-24T10:37:32Z</time></trkpt><trkpt lat="51.956756" lon="-1.639860"><ele>190.48</ele><time>2011-08-24T10:37:35Z</time></trkpt><trkpt lat="51.956747" lon="-1.639987"><ele>190.96</ele><time>2011-08-24T10:37:44Z</time></trkpt><trkpt lat="51.956759" lon="-1.640105"><ele>191.44</ele><time>2011-08-24T10:37:52Z</time></trkpt><trkpt lat="51.956802" lon="-1.640239"><ele>191.92</ele><time>2011-08-24T10:38:01Z</time></trkpt><trkpt lat="51.956827" lon="-1.640331"><ele>192.40</ele><time>2011-08-24T10:38:09Z</time></trkpt><trkpt lat="51.956821" lon="-1.640441"><ele>191.92</ele><time>2011-08-24T10:38:17Z</time></trkpt><trkpt lat="51.956824" lon="-1.640538"><ele>190.48</ele><time>2011-08-24T10:38:25Z</time></trkpt><trkpt lat="51.956810" lon="-1.640597"><ele>189.52</ele><time>2011-08-24T10:38:32Z</time></trkpt><trkpt lat="51.956801" lon="-1.640705"><ele>190.00</ele><time>2011-08-24T10:38:43Z</time></trkpt><trkpt lat="51.956811" lon="-1.640809"><ele>190.96</ele><time>2011-08-24T10:38:52Z</time></trkpt><trkpt lat="51.956813" lon="-1.640809"><ele>190.48</ele><time>2011-08-24T10:39:00Z</time></trkpt><trkpt lat="51.956840" lon="-1.640813"><ele>190.00</ele><time>2011-08-24T10:39:10Z</time></trkpt><trkpt lat="51.956879" lon="-1.640888"><ele>189.52</ele><time>2011-08-24T10:39:19Z</time></trkpt><trkpt lat="51.956883" lon="-1.641025"><ele>188.56</ele><time>2011-08-24T10:39:28Z</time></trkpt><trkpt lat="51.956897" lon="-1.641142"><ele>188.56</ele><time>2011-08-24T10:39:36Z</time></trkpt><trkpt lat="51.956914" lon="-1.641313"><ele>190.00</ele><time>2011-08-24T10:39:47Z</time></trkpt><trkpt lat="51.956945" lon="-1.641471"><ele>189.04</ele><time>2011-08-24T10:39:56Z</time></trkpt><trkpt lat="51.956966" lon="-1.641546"><ele>188.56</ele><time>2011-08-24T10:40:04Z</time></trkpt><trkpt lat="51.956995" lon="-1.641651"><ele>187.59</ele><time>2011-08-24T10:40:12Z</time></trkpt><trkpt lat="51.957012" lon="-1.641713"><ele>188.08</ele><time>2011-08-24T10:40:18Z</time></trkpt><trkpt lat="51.957022" lon="-1.641743"><ele>188.08</ele><time>2011-08-24T10:40:20Z</time></trkpt><trkpt lat="51.957034" lon="-1.641797"><ele>187.59</ele><time>2011-08-24T10:40:23Z</time></trkpt><trkpt lat="51.957064" lon="-1.641966"><ele>186.63</ele><time>2011-08-24T10:40:33Z</time></trkpt><trkpt lat="51.957051" lon="-1.642032"><ele>186.15</ele><time>2011-08-24T10:40:39Z</time></trkpt><trkpt lat="51.957008" lon="-1.642071"><ele>185.19</ele><time>2011-08-24T10:40:47Z</time></trkpt><trkpt lat="51.956999" lon="-1.642074"><ele>185.19</ele><time>2011-08-24T10:40:56Z</time></trkpt><trkpt lat="51.956951" lon="-1.642100"><ele>183.75</ele><time>2011-08-24T10:41:16Z</time></trkpt><trkpt lat="51.956922" lon="-1.642113"><ele>183.27</ele><time>2011-08-24T10:41:19Z</time></trkpt><trkpt lat="51.956827" lon="-1.642157"><ele>182.79</ele><time>2011-08-24T10:41:29Z</time></trkpt><trkpt lat="51.956808" lon="-1.642164"><ele>182.79</ele><time>2011-08-24T10:41:31Z</time></trkpt><trkpt lat="51.956729" lon="-1.642220"><ele>183.75</ele><time>2011-08-24T10:41:40Z</time></trkpt><trkpt lat="51.956674" lon="-1.642271"><ele>184.23</ele><time>2011-08-24T10:41:47Z</time></trkpt><trkpt lat="51.956573" lon="-1.642329"><ele>185.67</ele><time>2011-08-24T10:41:57Z</time></trkpt><trkpt lat="51.956486" lon="-1.642372"><ele>185.19</ele><time>2011-08-24T10:42:07Z</time></trkpt><trkpt lat="51.956407" lon="-1.642397"><ele>185.67</ele><time>2011-08-24T10:42:15Z</time></trkpt><trkpt lat="51.956295" lon="-1.642433"><ele>186.15</ele><time>2011-08-24T10:42:25Z</time></trkpt><trkpt lat="51.956210" lon="-1.642450"><ele>185.67</ele><time>2011-08-24T10:42:34Z</time></trkpt><trkpt lat="51.956135" lon="-1.642466"><ele>184.71</ele><time>2011-08-24T10:42:42Z</time></trkpt><trkpt lat="51.956051" lon="-1.642478"><ele>184.71</ele><time>2011-08-24T10:42:51Z</time></trkpt><trkpt lat="51.955949" lon="-1.642519"><ele>185.67</ele><time>2011-08-24T10:43:02Z</time></trkpt><trkpt lat="51.955872" lon="-1.642547"><ele>185.67</ele><time>2011-08-24T10:43:11Z</time></trkpt><trkpt lat="51.955777" lon="-1.642569"><ele>185.19</ele><time>2011-08-24T10:43:21Z</time></trkpt><trkpt lat="51.955644" lon="-1.642633"><ele>186.63</ele><time>2011-08-24T10:43:33Z</time></trkpt><trkpt lat="51.955557" lon="-1.642677"><ele>186.63</ele><time>2011-08-24T10:43:43Z</time></trkpt><trkpt lat="51.955480" lon="-1.642712"><ele>186.63</ele><time>2011-08-24T10:43:52Z</time></trkpt><trkpt lat="51.955449" lon="-1.642752"><ele>186.15</ele><time>2011-08-24T10:43:57Z</time></trkpt><trkpt lat="51.955396" lon="-1.642778"><ele>185.67</ele><time>2011-08-24T10:44:03Z</time></trkpt><trkpt lat="51.955300" lon="-1.642827"><ele>184.71</ele><time>2011-08-24T10:44:13Z</time></trkpt><trkpt lat="51.955225" lon="-1.642863"><ele>183.27</ele><time>2011-08-24T10:44:21Z</time></trkpt><trkpt lat="51.955142" lon="-1.642918"><ele>182.79</ele><time>2011-08-24T10:44:31Z</time></trkpt><trkpt lat="51.955073" lon="-1.642950"><ele>182.31</ele><time>2011-08-24T10:44:39Z</time></trkpt><trkpt lat="51.954992" lon="-1.642983"><ele>182.31</ele><time>2011-08-24T10:44:48Z</time></trkpt><trkpt lat="51.954928" lon="-1.643017"><ele>180.87</ele><time>2011-08-24T10:44:56Z</time></trkpt><trkpt lat="51.954836" lon="-1.643044"><ele>179.42</ele><time>2011-08-24T10:45:05Z</time></trkpt><trkpt lat="51.954753" lon="-1.643080"><ele>178.46</ele><time>2011-08-24T10:45:14Z</time></trkpt><trkpt lat="51.954679" lon="-1.643110"><ele>176.54</ele><time>2011-08-24T10:45:23Z</time></trkpt><trkpt lat="51.954610" lon="-1.643133"><ele>176.06</ele><time>2011-08-24T10:45:31Z</time></trkpt><trkpt lat="51.954526" lon="-1.643146"><ele>174.62</ele><time>2011-08-24T10:45:39Z</time></trkpt><trkpt lat="51.954475" lon="-1.643164"><ele>174.14</ele><time>2011-08-24T10:45:45Z</time></trkpt><trkpt lat="51.954430" lon="-1.643188"><ele>174.14</ele><time>2011-08-24T10:45:51Z</time></trkpt><trkpt lat="51.954359" lon="-1.643211"><ele>173.66</ele><time>2011-08-24T10:46:00Z</time></trkpt><trkpt lat="51.954341" lon="-1.643209"><ele>173.66</ele><time>2011-08-24T10:46:04Z</time></trkpt><trkpt lat="51.954261" lon="-1.643208"><ele>173.66</ele><time>2011-08-24T10:46:13Z</time></trkpt><trkpt lat="51.954225" lon="-1.643214"><ele>173.66</ele><time>2011-08-24T10:46:17Z</time></trkpt><trkpt lat="51.954171" lon="-1.643207"><ele>172.69</ele><time>2011-08-24T10:46:23Z</time></trkpt><trkpt lat="51.954090" lon="-1.643228"><ele>171.25</ele><time>2011-08-24T10:46:31Z</time></trkpt><trkpt lat="51.954021" lon="-1.643200"><ele>170.29</ele><time>2011-08-24T10:46:42Z</time></trkpt><trkpt lat="51.954014" lon="-1.643212"><ele>169.81</ele><time>2011-08-24T10:46:52Z</time></trkpt><trkpt lat="51.953931" lon="-1.643260"><ele>168.37</ele><time>2011-08-24T10:47:02Z</time></trkpt><trkpt lat="51.953929" lon="-1.643310"><ele>168.85</ele><time>2011-08-24T10:47:14Z</time></trkpt><trkpt lat="51.953928" lon="-1.643338"><ele>167.89</ele><time>2011-08-24T10:47:25Z</time></trkpt><trkpt lat="51.953940" lon="-1.643357"><ele>165.48</ele><time>2011-08-24T10:47:41Z</time></trkpt><trkpt lat="51.953924" lon="-1.643384"><ele>165.00</ele><time>2011-08-24T10:47:51Z</time></trkpt><trkpt lat="51.953914" lon="-1.643379"><ele>166.45</ele><time>2011-08-24T10:48:27Z</time></trkpt><trkpt lat="51.953858" lon="-1.643383"><ele>165.96</ele><time>2011-08-24T10:48:34Z</time></trkpt><trkpt lat="51.953842" lon="-1.643383"><ele>165.48</ele><time>2011-08-24T10:48:36Z</time></trkpt><trkpt lat="51.953762" lon="-1.643401"><ele>163.56</ele><time>2011-08-24T10:48:45Z</time></trkpt><trkpt lat="51.953685" lon="-1.643438"><ele>162.60</ele><time>2011-08-24T10:48:53Z</time></trkpt><trkpt lat="51.953606" lon="-1.643485"><ele>160.68</ele><time>2011-08-24T10:49:02Z</time></trkpt><trkpt lat="51.953553" lon="-1.643521"><ele>159.72</ele><time>2011-08-24T10:49:09Z</time></trkpt><trkpt lat="51.953497" lon="-1.643549"><ele>158.75</ele><time>2011-08-24T10:49:16Z</time></trkpt><trkpt lat="51.953425" lon="-1.643593"><ele>158.27</ele><time>2011-08-24T10:49:24Z</time></trkpt><trkpt lat="51.953399" lon="-1.643609"><ele>158.27</ele><time>2011-08-24T10:49:31Z</time></trkpt><trkpt lat="51.953402" lon="-1.643609"><ele>158.27</ele><time>2011-08-24T10:49:34Z</time></trkpt><trkpt lat="51.953349" lon="-1.643618"><ele>156.35</ele><time>2011-08-24T10:49:43Z</time></trkpt><trkpt lat="51.953297" lon="-1.643618"><ele>155.87</ele><time>2011-08-24T10:49:49Z</time></trkpt><trkpt lat="51.953267" lon="-1.643639"><ele>155.39</ele><time>2011-08-24T10:49:55Z</time></trkpt><trkpt lat="51.953213" lon="-1.643652"><ele>154.43</ele><time>2011-08-24T10:50:04Z</time></trkpt><trkpt lat="51.953122" lon="-1.643690"><ele>152.99</ele><time>2011-08-24T10:50:14Z</time></trkpt><trkpt lat="51.953034" lon="-1.643738"><ele>151.54</ele><time>2011-08-24T10:50:23Z</time></trkpt><trkpt lat="51.952954" lon="-1.643772"><ele>150.58</ele><time>2011-08-24T10:50:31Z</time></trkpt><trkpt lat="51.952874" lon="-1.643823"><ele>150.10</ele><time>2011-08-24T10:50:40Z</time></trkpt><trkpt lat="51.952795" lon="-1.643870"><ele>149.62</ele><time>2011-08-24T10:50:49Z</time></trkpt><trkpt lat="51.952718" lon="-1.643915"><ele>148.18</ele><time>2011-08-24T10:50:58Z</time></trkpt><trkpt lat="51.952612" lon="-1.643956"><ele>147.70</ele><time>2011-08-24T10:51:09Z</time></trkpt><trkpt lat="51.952523" lon="-1.644007"><ele>148.66</ele><time>2011-08-24T10:51:18Z</time></trkpt><trkpt lat="51.952437" lon="-1.644053"><ele>148.18</ele><time>2011-08-24T10:51:27Z</time></trkpt><trkpt lat="51.952353" lon="-1.644121"><ele>146.74</ele><time>2011-08-24T10:51:36Z</time></trkpt><trkpt lat="51.952267" lon="-1.644167"><ele>145.78</ele><time>2011-08-24T10:51:45Z</time></trkpt><trkpt lat="51.952179" lon="-1.644202"><ele>145.30</ele><time>2011-08-24T10:51:54Z</time></trkpt><trkpt lat="51.952083" lon="-1.644240"><ele>145.30</ele><time>2011-08-24T10:52:03Z</time></trkpt><trkpt lat="51.952029" lon="-1.644288"><ele>144.34</ele><time>2011-08-24T10:52:09Z</time></trkpt><trkpt lat="51.952014" lon="-1.644302"><ele>144.34</ele><time>2011-08-24T10:52:11Z</time></trkpt><trkpt lat="51.951921" lon="-1.644347"><ele>144.82</ele><time>2011-08-24T10:52:20Z</time></trkpt><trkpt lat="51.951838" lon="-1.644387"><ele>144.34</ele><time>2011-08-24T10:52:28Z</time></trkpt><trkpt lat="51.951785" lon="-1.644422"><ele>143.85</ele><time>2011-08-24T10:52:38Z</time></trkpt><trkpt lat="51.951713" lon="-1.644463"><ele>143.85</ele><time>2011-08-24T10:52:43Z</time></trkpt><trkpt lat="51.951608" lon="-1.644524"><ele>142.89</ele><time>2011-08-24T10:52:53Z</time></trkpt><trkpt lat="51.951480" lon="-1.644584"><ele>142.89</ele><time>2011-08-24T10:53:04Z</time></trkpt><trkpt lat="51.951365" lon="-1.644634"><ele>143.37</ele><time>2011-08-24T10:53:14Z</time></trkpt><trkpt lat="51.951250" lon="-1.644693"><ele>143.37</ele><time>2011-08-24T10:53:25Z</time></trkpt><trkpt lat="51.951161" lon="-1.644735"><ele>143.37</ele><time>2011-08-24T10:53:34Z</time></trkpt><trkpt lat="51.951058" lon="-1.644772"><ele>142.41</ele><time>2011-08-24T10:53:44Z</time></trkpt><trkpt lat="51.950972" lon="-1.644791"><ele>142.89</ele><time>2011-08-24T10:53:52Z</time></trkpt><trkpt lat="51.950891" lon="-1.644830"><ele>142.41</ele><time>2011-08-24T10:54:01Z</time></trkpt><trkpt lat="51.950837" lon="-1.644870"><ele>142.41</ele><time>2011-08-24T10:54:09Z</time></trkpt><trkpt lat="51.950729" lon="-1.644924"><ele>141.93</ele><time>2011-08-24T10:54:20Z</time></trkpt><trkpt lat="51.950645" lon="-1.644944"><ele>141.93</ele><time>2011-08-24T10:54:29Z</time></trkpt><trkpt lat="51.950552" lon="-1.644970"><ele>141.45</ele><time>2011-08-24T10:54:38Z</time></trkpt><trkpt lat="51.950444" lon="-1.645014"><ele>141.93</ele><time>2011-08-24T10:54:48Z</time></trkpt><trkpt lat="51.950331" lon="-1.645052"><ele>141.93</ele><time>2011-08-24T10:54:59Z</time></trkpt><trkpt lat="51.950220" lon="-1.645108"><ele>141.45</ele><time>2011-08-24T10:55:10Z</time></trkpt><trkpt lat="51.950142" lon="-1.645150"><ele>141.45</ele><time>2011-08-24T10:55:18Z</time></trkpt><trkpt lat="51.950050" lon="-1.645213"><ele>141.45</ele><time>2011-08-24T10:55:28Z</time></trkpt><trkpt lat="51.949955" lon="-1.645274"><ele>140.97</ele><time>2011-08-24T10:55:38Z</time></trkpt><trkpt lat="51.949863" lon="-1.645339"><ele>141.45</ele><time>2011-08-24T10:55:48Z</time></trkpt><trkpt lat="51.949766" lon="-1.645414"><ele>140.97</ele><time>2011-08-24T10:55:59Z</time></trkpt><trkpt lat="51.949665" lon="-1.645525"><ele>140.97</ele><time>2011-08-24T10:56:10Z</time></trkpt><trkpt lat="51.949571" lon="-1.645619"><ele>140.49</ele><time>2011-08-24T10:56:20Z</time></trkpt><trkpt lat="51.949491" lon="-1.645727"><ele>140.01</ele><time>2011-08-24T10:56:30Z</time></trkpt><trkpt lat="51.949392" lon="-1.645832"><ele>139.53</ele><time>2011-08-24T10:56:41Z</time></trkpt><trkpt lat="51.949314" lon="-1.645904"><ele>139.05</ele><time>2011-08-24T10:56:50Z</time></trkpt><trkpt lat="51.949234" lon="-1.646001"><ele>138.09</ele><time>2011-08-24T10:57:00Z</time></trkpt><trkpt lat="51.949194" lon="-1.646086"><ele>137.13</ele><time>2011-08-24T10:57:08Z</time></trkpt><trkpt lat="51.949103" lon="-1.646172"><ele>137.13</ele><time>2011-08-24T10:57:18Z</time></trkpt><trkpt lat="51.949033" lon="-1.646227"><ele>137.61</ele><time>2011-08-24T10:57:25Z</time></trkpt><trkpt lat="51.948959" lon="-1.646321"><ele>136.16</ele><time>2011-08-24T10:57:35Z</time></trkpt><trkpt lat="51.948879" lon="-1.646392"><ele>132.80</ele><time>2011-08-24T10:57:46Z</time></trkpt><trkpt lat="51.948801" lon="-1.646436"><ele>129.92</ele><time>2011-08-24T10:57:56Z</time></trkpt><trkpt lat="51.948767" lon="-1.646434"><ele>130.40</ele><time>2011-08-24T10:58:03Z</time></trkpt><trkpt lat="51.948759" lon="-1.646425"><ele>130.88</ele><time>2011-08-24T10:58:07Z</time></trkpt><trkpt lat="51.948763" lon="-1.646449"><ele>129.92</ele><time>2011-08-24T10:58:15Z</time></trkpt><trkpt lat="51.948686" lon="-1.646484"><ele>130.88</ele><time>2011-08-24T10:58:23Z</time></trkpt><trkpt lat="51.948591" lon="-1.646528"><ele>131.84</ele><time>2011-08-24T10:58:33Z</time></trkpt><trkpt lat="51.948572" lon="-1.646552"><ele>131.84</ele><time>2011-08-24T10:58:42Z</time></trkpt><trkpt lat="51.948562" lon="-1.646579"><ele>130.40</ele><time>2011-08-24T10:58:54Z</time></trkpt><trkpt lat="51.948465" lon="-1.646626"><ele>129.92</ele><time>2011-08-24T10:59:03Z</time></trkpt><trkpt lat="51.948403" lon="-1.646671"><ele>130.88</ele><time>2011-08-24T10:59:12Z</time></trkpt><trkpt lat="51.948388" lon="-1.646688"><ele>131.36</ele><time>2011-08-24T10:59:22Z</time></trkpt><trkpt lat="51.948367" lon="-1.646702"><ele>132.32</ele><time>2011-08-24T10:59:29Z</time></trkpt><trkpt lat="51.948345" lon="-1.646663"><ele>132.80</ele><time>2011-08-24T10:59:59Z</time></trkpt><trkpt lat="51.948283" lon="-1.646655"><ele>133.28</ele><time>2011-08-24T11:00:06Z</time></trkpt><trkpt lat="51.948237" lon="-1.646679"><ele>132.80</ele><time>2011-08-24T11:00:14Z</time></trkpt><trkpt lat="51.948212" lon="-1.646693"><ele>132.32</ele><time>2011-08-24T11:00:22Z</time></trkpt><trkpt lat="51.948108" lon="-1.646816"><ele>132.32</ele><time>2011-08-24T11:00:33Z</time></trkpt><trkpt lat="51.948020" lon="-1.646942"><ele>131.84</ele><time>2011-08-24T11:00:43Z</time></trkpt><trkpt lat="51.947909" lon="-1.647085"><ele>131.36</ele><time>2011-08-24T11:00:55Z</time></trkpt><trkpt lat="51.947815" lon="-1.647132"><ele>130.88</ele><time>2011-08-24T11:01:04Z</time></trkpt><trkpt lat="51.947700" lon="-1.647198"><ele>130.88</ele><time>2011-08-24T11:01:14Z</time></trkpt><trkpt lat="51.947579" lon="-1.647273"><ele>129.92</ele><time>2011-08-24T11:01:25Z</time></trkpt><trkpt lat="51.947482" lon="-1.647325"><ele>129.92</ele><time>2011-08-24T11:01:35Z</time></trkpt><trkpt lat="51.947378" lon="-1.647393"><ele>129.92</ele><time>2011-08-24T11:01:45Z</time></trkpt><trkpt lat="51.947270" lon="-1.647475"><ele>129.43</ele><time>2011-08-24T11:01:56Z</time></trkpt><trkpt lat="51.947170" lon="-1.647545"><ele>129.92</ele><time>2011-08-24T11:02:06Z</time></trkpt><trkpt lat="51.947039" lon="-1.647604"><ele>130.40</ele><time>2011-08-24T11:02:18Z</time></trkpt><trkpt lat="51.946886" lon="-1.647683"><ele>130.40</ele><time>2011-08-24T11:02:32Z</time></trkpt><trkpt lat="51.946757" lon="-1.647750"><ele>130.88</ele><time>2011-08-24T11:02:44Z</time></trkpt><trkpt lat="51.946638" lon="-1.647822"><ele>130.40</ele><time>2011-08-24T11:02:55Z</time></trkpt><trkpt lat="51.946526" lon="-1.647902"><ele>130.40</ele><time>2011-08-24T11:03:06Z</time></trkpt><trkpt lat="51.946447" lon="-1.647943"><ele>129.43</ele><time>2011-08-24T11:03:14Z</time></trkpt><trkpt lat="51.946442" lon="-1.647952"><ele>129.92</ele><time>2011-08-24T11:03:15Z</time></trkpt><trkpt lat="51.946422" lon="-1.647966"><ele>130.88</ele><time>2011-08-24T11:03:18Z</time></trkpt><trkpt lat="51.946333" lon="-1.647997"><ele>129.92</ele><time>2011-08-24T11:03:27Z</time></trkpt><trkpt lat="51.946212" lon="-1.648039"><ele>129.43</ele><time>2011-08-24T11:03:37Z</time></trkpt><trkpt lat="51.946088" lon="-1.648056"><ele>128.95</ele><time>2011-08-24T11:03:47Z</time></trkpt><trkpt lat="51.945980" lon="-1.648067"><ele>129.92</ele><time>2011-08-24T11:03:57Z</time></trkpt><trkpt lat="51.945896" lon="-1.648083"><ele>129.92</ele><time>2011-08-24T11:04:06Z</time></trkpt><trkpt lat="51.945840" lon="-1.648098"><ele>130.40</ele><time>2011-08-24T11:04:14Z</time></trkpt><trkpt lat="51.945833" lon="-1.648121"><ele>130.88</ele><time>2011-08-24T11:04:23Z</time></trkpt><trkpt lat="51.945835" lon="-1.648127"><ele>130.88</ele><time>2011-08-24T11:04:31Z</time></trkpt><trkpt lat="51.945732" lon="-1.648236"><ele>128.95</ele><time>2011-08-24T11:04:43Z</time></trkpt><trkpt lat="51.945669" lon="-1.648304"><ele>128.95</ele><time>2011-08-24T11:04:51Z</time></trkpt><trkpt lat="51.945625" lon="-1.648359"><ele>130.40</ele><time>2011-08-24T11:04:57Z</time></trkpt><trkpt lat="51.945565" lon="-1.648422"><ele>129.92</ele><time>2011-08-24T11:05:05Z</time></trkpt><trkpt lat="51.945476" lon="-1.648497"><ele>126.55</ele><time>2011-08-24T11:05:14Z</time></trkpt><trkpt lat="51.945459" lon="-1.648517"><ele>126.55</ele><time>2011-08-24T11:05:16Z</time></trkpt><trkpt lat="51.945390" lon="-1.648597"><ele>127.99</ele><time>2011-08-24T11:05:24Z</time></trkpt><trkpt lat="51.945293" lon="-1.648711"><ele>129.43</ele><time>2011-08-24T11:05:34Z</time></trkpt><trkpt lat="51.945202" lon="-1.648793"><ele>129.43</ele><time>2011-08-24T11:05:43Z</time></trkpt><trkpt lat="51.945097" lon="-1.648892"><ele>129.43</ele><time>2011-08-24T11:05:53Z</time></trkpt><trkpt lat="51.944983" lon="-1.648997"><ele>127.99</ele><time>2011-08-24T11:06:04Z</time></trkpt><trkpt lat="51.944886" lon="-1.649058"><ele>128.47</ele><time>2011-08-24T11:06:13Z</time></trkpt><trkpt lat="51.944797" lon="-1.649099"><ele>127.99</ele><time>2011-08-24T11:06:21Z</time></trkpt><trkpt lat="51.944665" lon="-1.649182"><ele>127.99</ele><time>2011-08-24T11:06:32Z</time></trkpt><trkpt lat="51.944543" lon="-1.649253"><ele>127.99</ele><time>2011-08-24T11:06:43Z</time></trkpt><trkpt lat="51.944434" lon="-1.649335"><ele>128.47</ele><time>2011-08-24T11:06:53Z</time></trkpt><trkpt lat="51.944353" lon="-1.649383"><ele>127.99</ele><time>2011-08-24T11:07:01Z</time></trkpt><trkpt lat="51.944255" lon="-1.649460"><ele>127.03</ele><time>2011-08-24T11:07:11Z</time></trkpt><trkpt lat="51.944150" lon="-1.649520"><ele>126.55</ele><time>2011-08-24T11:07:21Z</time></trkpt><trkpt lat="51.944028" lon="-1.649560"><ele>126.07</ele><time>2011-08-24T11:07:32Z</time></trkpt><trkpt lat="51.943906" lon="-1.649608"><ele>125.11</ele><time>2011-08-24T11:07:43Z</time></trkpt><trkpt lat="51.943809" lon="-1.649631"><ele>125.11</ele><time>2011-08-24T11:07:52Z</time></trkpt><trkpt lat="51.943694" lon="-1.649681"><ele>125.11</ele><time>2011-08-24T11:08:03Z</time></trkpt><trkpt lat="51.943657" lon="-1.649690"><ele>124.63</ele><time>2011-08-24T11:08:06Z</time></trkpt><trkpt lat="51.943633" lon="-1.649699"><ele>124.63</ele><time>2011-08-24T11:08:08Z</time></trkpt><trkpt lat="51.943506" lon="-1.649746"><ele>123.67</ele><time>2011-08-24T11:08:20Z</time></trkpt><trkpt lat="51.943375" lon="-1.649757"><ele>123.19</ele><time>2011-08-24T11:08:31Z</time></trkpt><trkpt lat="51.943248" lon="-1.649743"><ele>124.63</ele><time>2011-08-24T11:08:41Z</time></trkpt><trkpt lat="51.943192" lon="-1.649743"><ele>124.63</ele><time>2011-08-24T11:08:46Z</time></trkpt><trkpt lat="51.943089" lon="-1.649755"><ele>124.15</ele><time>2011-08-24T11:08:55Z</time></trkpt><trkpt lat="51.942992" lon="-1.649737"><ele>124.63</ele><time>2011-08-24T11:09:04Z</time></trkpt><trkpt lat="51.942906" lon="-1.649717"><ele>124.63</ele><time>2011-08-24T11:09:12Z</time></trkpt><trkpt lat="51.942797" lon="-1.649678"><ele>124.15</ele><time>2011-08-24T11:09:22Z</time></trkpt><trkpt lat="51.942703" lon="-1.649679"><ele>124.63</ele><time>2011-08-24T11:09:31Z</time></trkpt><trkpt lat="51.942662" lon="-1.649687"><ele>125.11</ele><time>2011-08-24T11:09:40Z</time></trkpt><trkpt lat="51.942624" lon="-1.649721"><ele>124.63</ele><time>2011-08-24T11:09:48Z</time></trkpt><trkpt lat="51.942625" lon="-1.649885"><ele>123.67</ele><time>2011-08-24T11:09:59Z</time></trkpt><trkpt lat="51.942643" lon="-1.649916"><ele>124.15</ele><time>2011-08-24T11:10:04Z</time></trkpt><trkpt lat="51.942643" lon="-1.649983"><ele>124.15</ele><time>2011-08-24T11:10:17Z</time></trkpt><trkpt lat="51.942659" lon="-1.650196"><ele>123.19</ele><time>2011-08-24T11:10:28Z</time></trkpt><trkpt lat="51.942670" lon="-1.650360"><ele>122.71</ele><time>2011-08-24T11:10:38Z</time></trkpt><trkpt lat="51.942666" lon="-1.650526"><ele>122.71</ele><time>2011-08-24T11:10:48Z</time></trkpt><trkpt lat="51.942679" lon="-1.650692"><ele>122.71</ele><time>2011-08-24T11:10:57Z</time></trkpt><trkpt lat="51.942681" lon="-1.650776"><ele>122.22</ele><time>2011-08-24T11:11:02Z</time></trkpt><trkpt lat="51.942688" lon="-1.650837"><ele>121.74</ele><time>2011-08-24T11:11:06Z</time></trkpt><trkpt lat="51.942688" lon="-1.650868"><ele>121.74</ele><time>2011-08-24T11:11:08Z</time></trkpt><trkpt lat="51.942669" lon="-1.651097"><ele>121.26</ele><time>2011-08-24T11:11:21Z</time></trkpt><trkpt lat="51.942643" lon="-1.651310"><ele>120.78</ele><time>2011-08-24T11:11:33Z</time></trkpt><trkpt lat="51.942614" lon="-1.651517"><ele>120.78</ele><time>2011-08-24T11:11:44Z</time></trkpt><trkpt lat="51.942601" lon="-1.651614"><ele>120.78</ele><time>2011-08-24T11:11:51Z</time></trkpt><trkpt lat="51.942585" lon="-1.651765"><ele>120.30</ele><time>2011-08-24T11:11:59Z</time></trkpt><trkpt lat="51.942581" lon="-1.651833"><ele>119.82</ele><time>2011-08-24T11:12:03Z</time></trkpt><trkpt lat="51.942562" lon="-1.652081"><ele>115.50</ele><time>2011-08-24T11:12:16Z</time></trkpt><trkpt lat="51.942542" lon="-1.652250"><ele>113.57</ele><time>2011-08-24T11:12:25Z</time></trkpt><trkpt lat="51.942504" lon="-1.652373"><ele>115.50</ele><time>2011-08-24T11:12:33Z</time></trkpt><trkpt lat="51.942438" lon="-1.652474"><ele>117.42</ele><time>2011-08-24T11:12:41Z</time></trkpt><trkpt lat="51.942423" lon="-1.652529"><ele>117.90</ele><time>2011-08-24T11:12:49Z</time></trkpt><trkpt lat="51.942424" lon="-1.652541"><ele>117.90</ele><time>2011-08-24T11:12:57Z</time></trkpt><trkpt lat="51.942417" lon="-1.652555"><ele>117.42</ele><time>2011-08-24T11:13:03Z</time></trkpt><trkpt lat="51.942389" lon="-1.652608"><ele>117.42</ele><time>2011-08-24T11:13:09Z</time></trkpt><trkpt lat="51.942314" lon="-1.652694"><ele>117.90</ele><time>2011-08-24T11:13:17Z</time></trkpt><trkpt lat="51.942240" lon="-1.652814"><ele>117.42</ele><time>2011-08-24T11:13:27Z</time></trkpt><trkpt lat="51.942162" lon="-1.652933"><ele>117.42</ele><time>2011-08-24T11:13:36Z</time></trkpt><trkpt lat="51.942098" lon="-1.653013"><ele>116.46</ele><time>2011-08-24T11:13:43Z</time></trkpt><trkpt lat="51.941995" lon="-1.653136"><ele>116.94</ele><time>2011-08-24T11:13:54Z</time></trkpt><trkpt lat="51.941906" lon="-1.653249"><ele>117.90</ele><time>2011-08-24T11:14:04Z</time></trkpt><trkpt lat="51.941822" lon="-1.653334"><ele>117.90</ele><time>2011-08-24T11:14:13Z</time></trkpt><trkpt lat="51.941726" lon="-1.653471"><ele>118.38</ele><time>2011-08-24T11:14:25Z</time></trkpt><trkpt lat="51.941648" lon="-1.653551"><ele>118.86</ele><time>2011-08-24T11:14:34Z</time></trkpt><trkpt lat="51.941595" lon="-1.653623"><ele>118.86</ele><time>2011-08-24T11:14:41Z</time></trkpt><trkpt lat="51.941522" lon="-1.653734"><ele>119.34</ele><time>2011-08-24T11:14:50Z</time></trkpt><trkpt lat="51.941466" lon="-1.653800"><ele>118.86</ele><time>2011-08-24T11:14:59Z</time></trkpt><trkpt lat="51.941461" lon="-1.653817"><ele>119.34</ele><time>2011-08-24T11:15:11Z</time></trkpt><trkpt lat="51.941440" lon="-1.653853"><ele>118.86</ele><time>2011-08-24T11:15:19Z</time></trkpt><trkpt lat="51.941391" lon="-1.653967"><ele>119.34</ele><time>2011-08-24T11:15:27Z</time></trkpt><trkpt lat="51.941364" lon="-1.654007"><ele>119.82</ele><time>2011-08-24T11:15:36Z</time></trkpt><trkpt lat="51.941338" lon="-1.654022"><ele>119.34</ele><time>2011-08-24T11:15:45Z</time></trkpt><trkpt lat="51.941330" lon="-1.654028"><ele>119.34</ele><time>2011-08-24T11:15:46Z</time></trkpt><trkpt lat="51.941255" lon="-1.654072"><ele>118.38</ele><time>2011-08-24T11:15:53Z</time></trkpt><trkpt lat="51.941202" lon="-1.654083"><ele>118.38</ele><time>2011-08-24T11:15:59Z</time></trkpt><trkpt lat="51.941127" lon="-1.654108"><ele>117.42</ele><time>2011-08-24T11:16:07Z</time></trkpt><trkpt lat="51.941044" lon="-1.654154"><ele>117.42</ele><time>2011-08-24T11:16:15Z</time></trkpt><trkpt lat="51.940956" lon="-1.654183"><ele>117.42</ele><time>2011-08-24T11:16:24Z</time></trkpt><trkpt lat="51.940885" lon="-1.654207"><ele>116.94</ele><time>2011-08-24T11:16:30Z</time></trkpt><trkpt lat="51.940840" lon="-1.654214"><ele>116.46</ele><time>2011-08-24T11:16:34Z</time></trkpt><trkpt lat="51.940757" lon="-1.654199"><ele>116.46</ele><time>2011-08-24T11:16:42Z</time></trkpt><trkpt lat="51.940671" lon="-1.654174"><ele>117.42</ele><time>2011-08-24T11:16:50Z</time></trkpt><trkpt lat="51.940572" lon="-1.654166"><ele>117.42</ele><time>2011-08-24T11:16:59Z</time></trkpt><trkpt lat="51.940487" lon="-1.654184"><ele>117.42</ele><time>2011-08-24T11:17:07Z</time></trkpt><trkpt lat="51.940406" lon="-1.654226"><ele>116.46</ele><time>2011-08-24T11:17:15Z</time></trkpt><trkpt lat="51.940397" lon="-1.654234"><ele>116.46</ele><time>2011-08-24T11:17:16Z</time></trkpt><trkpt lat="51.940346" lon="-1.654283"><ele>117.42</ele><time>2011-08-24T11:17:22Z</time></trkpt><trkpt lat="51.940294" lon="-1.654330"><ele>119.34</ele><time>2011-08-24T11:17:29Z</time></trkpt><trkpt lat="51.940232" lon="-1.654390"><ele>119.82</ele><time>2011-08-24T11:17:37Z</time></trkpt><trkpt lat="51.940170" lon="-1.654438"><ele>121.26</ele><time>2011-08-24T11:17:43Z</time></trkpt><trkpt lat="51.940080" lon="-1.654524"><ele>120.78</ele><time>2011-08-24T11:17:52Z</time></trkpt><trkpt lat="51.939986" lon="-1.654582"><ele>121.26</ele><time>2011-08-24T11:18:02Z</time></trkpt><trkpt lat="51.939925" lon="-1.654591"><ele>121.26</ele><time>2011-08-24T11:18:09Z</time></trkpt><trkpt lat="51.939846" lon="-1.654570"><ele>120.78</ele><time>2011-08-24T11:18:17Z</time></trkpt><trkpt lat="51.939780" lon="-1.654565"><ele>119.82</ele><time>2011-08-24T11:18:24Z</time></trkpt><trkpt lat="51.939699" lon="-1.654605"><ele>118.86</ele><time>2011-08-24T11:18:32Z</time></trkpt><trkpt lat="51.939623" lon="-1.654631"><ele>120.30</ele><time>2011-08-24T11:18:40Z</time></trkpt><trkpt lat="51.939520" lon="-1.654687"><ele>118.86</ele><time>2011-08-24T11:18:50Z</time></trkpt><trkpt lat="51.939442" lon="-1.654722"><ele>118.38</ele><time>2011-08-24T11:18:57Z</time></trkpt><trkpt lat="51.939341" lon="-1.654722"><ele>116.94</ele><time>2011-08-24T11:19:06Z</time></trkpt><trkpt lat="51.939226" lon="-1.654738"><ele>115.01</ele><time>2011-08-24T11:19:17Z</time></trkpt><trkpt lat="51.939110" lon="-1.654746"><ele>115.01</ele><time>2011-08-24T11:19:28Z</time></trkpt><trkpt lat="51.939020" lon="-1.654753"><ele>115.01</ele><time>2011-08-24T11:19:36Z</time></trkpt><trkpt lat="51.938913" lon="-1.654758"><ele>115.01</ele><time>2011-08-24T11:19:46Z</time></trkpt><trkpt lat="51.938820" lon="-1.654788"><ele>114.53</ele><time>2011-08-24T11:19:55Z</time></trkpt><trkpt lat="51.938746" lon="-1.654842"><ele>114.53</ele><time>2011-08-24T11:20:03Z</time></trkpt><trkpt lat="51.938646" lon="-1.655003"><ele>114.05</ele><time>2011-08-24T11:20:15Z</time></trkpt><trkpt lat="51.938561" lon="-1.655107"><ele>115.01</ele><time>2011-08-24T11:20:24Z</time></trkpt><trkpt lat="51.938488" lon="-1.655241"><ele>115.01</ele><time>2011-08-24T11:20:34Z</time></trkpt><trkpt lat="51.938454" lon="-1.655304"><ele>115.98</ele><time>2011-08-24T11:20:39Z</time></trkpt><trkpt lat="51.938376" lon="-1.655414"><ele>115.98</ele><time>2011-08-24T11:20:50Z</time></trkpt><trkpt lat="51.938349" lon="-1.655477"><ele>116.46</ele><time>2011-08-24T11:21:03Z</time></trkpt><trkpt lat="51.938305" lon="-1.655545"><ele>116.94</ele><time>2011-08-24T11:21:10Z</time></trkpt><trkpt lat="51.938263" lon="-1.655622"><ele>116.94</ele><time>2011-08-24T11:21:17Z</time></trkpt><trkpt lat="51.938235" lon="-1.655700"><ele>115.50</ele><time>2011-08-24T11:21:25Z</time></trkpt><trkpt lat="51.938190" lon="-1.655773"><ele>114.53</ele><time>2011-08-24T11:21:33Z</time></trkpt><trkpt lat="51.938150" lon="-1.655839"><ele>114.53</ele><time>2011-08-24T11:21:41Z</time></trkpt><trkpt lat="51.938117" lon="-1.655895"><ele>115.50</ele><time>2011-08-24T11:21:56Z</time></trkpt><trkpt lat="51.938050" lon="-1.655997"><ele>115.98</ele><time>2011-08-24T11:22:05Z</time></trkpt><trkpt lat="51.937993" lon="-1.656083"><ele>115.50</ele><time>2011-08-24T11:22:13Z</time></trkpt><trkpt lat="51.937930" lon="-1.656190"><ele>116.46</ele><time>2011-08-24T11:22:22Z</time></trkpt><trkpt lat="51.937868" lon="-1.656287"><ele>117.42</ele><time>2011-08-24T11:22:30Z</time></trkpt><trkpt lat="51.937799" lon="-1.656399"><ele>116.94</ele><time>2011-08-24T11:22:39Z</time></trkpt><trkpt lat="51.937747" lon="-1.656516"><ele>117.42</ele><time>2011-08-24T11:22:48Z</time></trkpt><trkpt lat="51.937666" lon="-1.656634"><ele>116.94</ele><time>2011-08-24T11:22:59Z</time></trkpt><trkpt lat="51.937561" lon="-1.656747"><ele>116.46</ele><time>2011-08-24T11:23:11Z</time></trkpt><trkpt lat="51.937476" lon="-1.656848"><ele>116.46</ele><time>2011-08-24T11:23:21Z</time></trkpt><trkpt lat="51.937447" lon="-1.656895"><ele>114.05</ele><time>2011-08-24T11:23:27Z</time></trkpt><trkpt lat="51.937434" lon="-1.656914"><ele>113.09</ele><time>2011-08-24T11:23:39Z</time></trkpt><trkpt lat="51.937378" lon="-1.656997"><ele>114.05</ele><time>2011-08-24T11:23:46Z</time></trkpt><trkpt lat="51.937324" lon="-1.657060"><ele>114.53</ele><time>2011-08-24T11:23:52Z</time></trkpt><trkpt lat="51.937302" lon="-1.657081"><ele>114.53</ele><time>2011-08-24T11:23:54Z</time></trkpt><trkpt lat="51.937212" lon="-1.657176"><ele>115.50</ele><time>2011-08-24T11:24:03Z</time></trkpt><trkpt lat="51.937139" lon="-1.657308"><ele>115.98</ele><time>2011-08-24T11:24:13Z</time></trkpt><trkpt lat="51.937114" lon="-1.657342"><ele>115.50</ele><time>2011-08-24T11:24:16Z</time></trkpt><trkpt lat="51.937043" lon="-1.657535"><ele>115.98</ele><time>2011-08-24T11:24:29Z</time></trkpt><trkpt lat="51.936994" lon="-1.657556"><ele>116.46</ele><time>2011-08-24T11:24:37Z</time></trkpt><trkpt lat="51.936952" lon="-1.657554"><ele>116.46</ele><time>2011-08-24T11:24:44Z</time></trkpt><trkpt lat="51.936904" lon="-1.657628"><ele>116.94</ele><time>2011-08-24T11:24:52Z</time></trkpt><trkpt lat="51.936877" lon="-1.657694"><ele>115.50</ele><time>2011-08-24T11:25:03Z</time></trkpt><trkpt lat="51.936873" lon="-1.657698"><ele>115.50</ele><time>2011-08-24T11:25:04Z</time></trkpt><trkpt lat="51.936805" lon="-1.657706"><ele>115.01</ele><time>2011-08-24T11:25:11Z</time></trkpt><trkpt lat="51.936784" lon="-1.657712"><ele>115.01</ele><time>2011-08-24T11:25:13Z</time></trkpt><trkpt lat="51.936705" lon="-1.657716"><ele>114.53</ele><time>2011-08-24T11:25:21Z</time></trkpt><trkpt lat="51.936686" lon="-1.657700"><ele>114.05</ele><time>2011-08-24T11:25:26Z</time></trkpt><trkpt lat="51.936653" lon="-1.657680"><ele>114.53</ele><time>2011-08-24T11:25:34Z</time></trkpt><trkpt lat="51.936573" lon="-1.657636"><ele>115.01</ele><time>2011-08-24T11:25:42Z</time></trkpt><trkpt lat="51.936481" lon="-1.657609"><ele>115.98</ele><time>2011-08-24T11:25:50Z</time></trkpt><trkpt lat="51.936415" lon="-1.657582"><ele>116.46</ele><time>2011-08-24T11:25:57Z</time></trkpt><trkpt lat="51.936327" lon="-1.657535"><ele>117.90</ele><time>2011-08-24T11:26:06Z</time></trkpt><trkpt lat="51.936236" lon="-1.657495"><ele>116.94</ele><time>2011-08-24T11:26:14Z</time></trkpt><trkpt lat="51.936160" lon="-1.657464"><ele>115.50</ele><time>2011-08-24T11:26:24Z</time></trkpt><trkpt lat="51.936072" lon="-1.657402"><ele>115.01</ele><time>2011-08-24T11:26:33Z</time></trkpt><trkpt lat="51.936004" lon="-1.657339"><ele>113.57</ele><time>2011-08-24T11:26:41Z</time></trkpt><trkpt lat="51.935922" lon="-1.657259"><ele>112.13</ele><time>2011-08-24T11:26:51Z</time></trkpt><trkpt lat="51.935892" lon="-1.657228"><ele>111.17</ele><time>2011-08-24T11:27:00Z</time></trkpt><trkpt lat="51.935841" lon="-1.657225"><ele>113.57</ele><time>2011-08-24T11:27:09Z</time></trkpt><trkpt lat="51.935726" lon="-1.657341"><ele>119.82</ele><time>2011-08-24T11:27:18Z</time></trkpt><trkpt lat="51.935712" lon="-1.657404"><ele>119.82</ele><time>2011-08-24T11:27:22Z</time></trkpt><trkpt lat="51.935683" lon="-1.657457"><ele>120.30</ele><time>2011-08-24T11:27:26Z</time></trkpt><trkpt lat="51.935657" lon="-1.657527"><ele>120.78</ele><time>2011-08-24T11:27:32Z</time></trkpt><trkpt lat="51.935607" lon="-1.657633"><ele>120.30</ele><time>2011-08-24T11:27:40Z</time></trkpt><trkpt lat="51.935585" lon="-1.657705"><ele>119.34</ele><time>2011-08-24T11:27:47Z</time></trkpt><trkpt lat="51.935592" lon="-1.657721"><ele>118.38</ele><time>2011-08-24T11:27:54Z</time></trkpt><trkpt lat="51.935647" lon="-1.657664"><ele>115.98</ele><time>2011-08-24T11:28:03Z</time></trkpt><trkpt lat="51.935741" lon="-1.657515"><ele>115.01</ele><time>2011-08-24T11:28:13Z</time></trkpt><trkpt lat="51.935796" lon="-1.657360"><ele>114.53</ele><time>2011-08-24T11:28:22Z</time></trkpt><trkpt lat="51.935804" lon="-1.657169"><ele>115.50</ele><time>2011-08-24T11:28:32Z</time></trkpt><trkpt lat="51.935775" lon="-1.657029"><ele>117.42</ele><time>2011-08-24T11:28:41Z</time></trkpt><trkpt lat="51.935729" lon="-1.656882"><ele>117.90</ele><time>2011-08-24T11:28:50Z</time></trkpt><trkpt lat="51.935654" lon="-1.656695"><ele>113.09</ele><time>2011-08-24T11:29:00Z</time></trkpt><trkpt lat="51.935604" lon="-1.656585"><ele>114.53</ele><time>2011-08-24T11:29:08Z</time></trkpt><trkpt lat="51.935540" lon="-1.656442"><ele>115.50</ele><time>2011-08-24T11:29:17Z</time></trkpt><trkpt lat="51.935468" lon="-1.656317"><ele>115.98</ele><time>2011-08-24T11:29:27Z</time></trkpt><trkpt lat="51.935412" lon="-1.656238"><ele>116.46</ele><time>2011-08-24T11:29:36Z</time></trkpt><trkpt lat="51.935416" lon="-1.656206"><ele>116.46</ele><time>2011-08-24T11:30:11Z</time></trkpt></trkseg></trk></gpx>